<?xml version="1.0" encoding="UTF-8" standalone="no" ?>
<gpx xmlns="http://www.topografix.com/GPX/1/1" xmlns:xsi="http://www.w3.org/2001/XMLSchema-instance" xsi:schemaLocation="http://www.topografix.com/GPX/1/1 http://www.topografix.com/GPX/1/1/gpx.xsd" version="1.1" creator="VisuGPX - https://www.visugpx.com">
  <metadata>
    <name>ballade autour de l\'aeroport de lorient</name>
    <desc><![CDATA[ballade autour de l%u2019aéroport de Lorient le 22/02/2012]]></desc>
  </metadata>
  <trk>
    <name><![CDATA[ballade autour de l\'aeroport de lorient_1]]></name>
    <trkseg>
      <trkpt lat="47.74956" lon="-3.39545">
        <ele>36</ele>
        <time>2012-02-22T12:55:26Z</time>
      </trkpt>
      <trkpt lat="47.74953" lon="-3.39542">
        <ele>36</ele>
        <time>2012-02-22T12:56:05Z</time>
      </trkpt>
      <trkpt lat="47.74948" lon="-3.39547">
        <ele>36</ele>
        <time>2012-02-22T12:56:08Z</time>
      </trkpt>
      <trkpt lat="47.74943" lon="-3.39551">
        <ele>36</ele>
        <time>2012-02-22T12:56:10Z</time>
      </trkpt>
      <trkpt lat="47.74937" lon="-3.39552">
        <ele>36</ele>
        <time>2012-02-22T12:56:12Z</time>
      </trkpt>
      <trkpt lat="47.74929" lon="-3.39551">
        <ele>36</ele>
        <time>2012-02-22T12:56:14Z</time>
      </trkpt>
      <trkpt lat="47.74915" lon="-3.3954">
        <ele>35</ele>
        <time>2012-02-22T12:56:19Z</time>
      </trkpt>
      <trkpt lat="47.7491" lon="-3.39541">
        <ele>35</ele>
        <time>2012-02-22T12:56:21Z</time>
      </trkpt>
      <trkpt lat="47.74905" lon="-3.39546">
        <ele>35</ele>
        <time>2012-02-22T12:56:23Z</time>
      </trkpt>
      <trkpt lat="47.74861" lon="-3.39609">
        <ele>34</ele>
        <time>2012-02-22T12:56:40Z</time>
      </trkpt>
      <trkpt lat="47.74858" lon="-3.39622">
        <ele>34</ele>
        <time>2012-02-22T12:56:43Z</time>
      </trkpt>
      <trkpt lat="47.74856" lon="-3.39641">
        <ele>34</ele>
        <time>2012-02-22T12:56:46Z</time>
      </trkpt>
      <trkpt lat="47.74873" lon="-3.39724">
        <ele>36</ele>
        <time>2012-02-22T12:56:59Z</time>
      </trkpt>
      <trkpt lat="47.74912" lon="-3.39846">
        <ele>38</ele>
        <time>2012-02-22T12:57:24Z</time>
      </trkpt>
      <trkpt lat="47.74917" lon="-3.39855">
        <ele>38</ele>
        <time>2012-02-22T12:57:27Z</time>
      </trkpt>
      <trkpt lat="47.74921" lon="-3.3986">
        <ele>38</ele>
        <time>2012-02-22T12:57:29Z</time>
      </trkpt>
      <trkpt lat="47.74929" lon="-3.3986">
        <ele>38</ele>
        <time>2012-02-22T12:57:32Z</time>
      </trkpt>
      <trkpt lat="47.7498" lon="-3.39839">
        <ele>38</ele>
        <time>2012-02-22T12:57:47Z</time>
      </trkpt>
      <trkpt lat="47.75051" lon="-3.39812">
        <ele>39</ele>
        <time>2012-02-22T12:58:10Z</time>
      </trkpt>
      <trkpt lat="47.75105" lon="-3.3981">
        <ele>39</ele>
        <time>2012-02-22T12:58:26Z</time>
      </trkpt>
      <trkpt lat="47.75123" lon="-3.39815">
        <ele>39</ele>
        <time>2012-02-22T12:58:31Z</time>
      </trkpt>
      <trkpt lat="47.75227" lon="-3.39863">
        <ele>35</ele>
        <time>2012-02-22T12:58:55Z</time>
      </trkpt>
      <trkpt lat="47.75236" lon="-3.39866">
        <ele>35</ele>
        <time>2012-02-22T12:58:58Z</time>
      </trkpt>
      <trkpt lat="47.75245" lon="-3.39867">
        <ele>35</ele>
        <time>2012-02-22T12:59:01Z</time>
      </trkpt>
      <trkpt lat="47.75265" lon="-3.39882">
        <ele>33</ele>
        <time>2012-02-22T12:59:07Z</time>
      </trkpt>
      <trkpt lat="47.75303" lon="-3.39902">
        <ele>32</ele>
        <time>2012-02-22T12:59:15Z</time>
      </trkpt>
      <trkpt lat="47.75323" lon="-3.39918">
        <ele>32</ele>
        <time>2012-02-22T12:59:19Z</time>
      </trkpt>
      <trkpt lat="47.75382" lon="-3.39976">
        <ele>28</ele>
        <time>2012-02-22T12:59:31Z</time>
      </trkpt>
      <trkpt lat="47.75393" lon="-3.39991">
        <ele>28</ele>
        <time>2012-02-22T12:59:34Z</time>
      </trkpt>
      <trkpt lat="47.75408" lon="-3.40016">
        <ele>26</ele>
        <time>2012-02-22T12:59:38Z</time>
      </trkpt>
      <trkpt lat="47.75423" lon="-3.40045">
        <ele>24</ele>
        <time>2012-02-22T12:59:43Z</time>
      </trkpt>
      <trkpt lat="47.75431" lon="-3.40066">
        <ele>24</ele>
        <time>2012-02-22T12:59:47Z</time>
      </trkpt>
      <trkpt lat="47.75449" lon="-3.40128">
        <ele>23</ele>
        <time>2012-02-22T12:59:57Z</time>
      </trkpt>
      <trkpt lat="47.75456" lon="-3.40146">
        <ele>23</ele>
        <time>2012-02-22T13:00:00Z</time>
      </trkpt>
      <trkpt lat="47.75469" lon="-3.40171">
        <ele>22</ele>
        <time>2012-02-22T13:00:05Z</time>
      </trkpt>
      <trkpt lat="47.75486" lon="-3.40198">
        <ele>21</ele>
        <time>2012-02-22T13:00:11Z</time>
      </trkpt>
      <trkpt lat="47.75495" lon="-3.40213">
        <ele>21</ele>
        <time>2012-02-22T13:00:14Z</time>
      </trkpt>
      <trkpt lat="47.75507" lon="-3.40239">
        <ele>22</ele>
        <time>2012-02-22T13:00:18Z</time>
      </trkpt>
      <trkpt lat="47.75522" lon="-3.40281">
        <ele>21</ele>
        <time>2012-02-22T13:00:24Z</time>
      </trkpt>
      <trkpt lat="47.75535" lon="-3.40304">
        <ele>21</ele>
        <time>2012-02-22T13:00:28Z</time>
      </trkpt>
      <trkpt lat="47.75552" lon="-3.40322">
        <ele>21</ele>
        <time>2012-02-22T13:00:33Z</time>
      </trkpt>
      <trkpt lat="47.75562" lon="-3.4033">
        <ele>22</ele>
        <time>2012-02-22T13:00:36Z</time>
      </trkpt>
      <trkpt lat="47.75584" lon="-3.40341">
        <ele>22</ele>
        <time>2012-02-22T13:00:42Z</time>
      </trkpt>
      <trkpt lat="47.75642" lon="-3.40365">
        <ele>24</ele>
        <time>2012-02-22T13:00:58Z</time>
      </trkpt>
      <trkpt lat="47.75698" lon="-3.40391">
        <ele>28</ele>
        <time>2012-02-22T13:01:15Z</time>
      </trkpt>
      <trkpt lat="47.75732" lon="-3.40411">
        <ele>29</ele>
        <time>2012-02-22T13:01:25Z</time>
      </trkpt>
      <trkpt lat="47.75748" lon="-3.40426">
        <ele>30</ele>
        <time>2012-02-22T13:01:30Z</time>
      </trkpt>
      <trkpt lat="47.75759" lon="-3.40441">
        <ele>31</ele>
        <time>2012-02-22T13:01:34Z</time>
      </trkpt>
      <trkpt lat="47.75774" lon="-3.40467">
        <ele>31</ele>
        <time>2012-02-22T13:01:40Z</time>
      </trkpt>
      <trkpt lat="47.75801" lon="-3.40523">
        <ele>30</ele>
        <time>2012-02-22T13:01:53Z</time>
      </trkpt>
      <trkpt lat="47.75811" lon="-3.4056">
        <ele>30</ele>
        <time>2012-02-22T13:01:59Z</time>
      </trkpt>
      <trkpt lat="47.75822" lon="-3.40614">
        <ele>29</ele>
        <time>2012-02-22T13:02:07Z</time>
      </trkpt>
      <trkpt lat="47.7583" lon="-3.40643">
        <ele>29</ele>
        <time>2012-02-22T13:02:11Z</time>
      </trkpt>
      <trkpt lat="47.75838" lon="-3.40663">
        <ele>30</ele>
        <time>2012-02-22T13:02:14Z</time>
      </trkpt>
      <trkpt lat="47.75869" lon="-3.40732">
        <ele>28</ele>
        <time>2012-02-22T13:02:26Z</time>
      </trkpt>
      <trkpt lat="47.75882" lon="-3.40747">
        <ele>28</ele>
        <time>2012-02-22T13:02:29Z</time>
      </trkpt>
      <trkpt lat="47.75898" lon="-3.40761">
        <ele>26</ele>
        <time>2012-02-22T13:02:32Z</time>
      </trkpt>
      <trkpt lat="47.75937" lon="-3.40787">
        <ele>28</ele>
        <time>2012-02-22T13:02:39Z</time>
      </trkpt>
      <trkpt lat="47.75953" lon="-3.408">
        <ele>29</ele>
        <time>2012-02-22T13:02:43Z</time>
      </trkpt>
      <trkpt lat="47.75958" lon="-3.40806">
        <ele>29</ele>
        <time>2012-02-22T13:02:45Z</time>
      </trkpt>
      <trkpt lat="47.75957" lon="-3.40815">
        <ele>29</ele>
        <time>2012-02-22T13:02:47Z</time>
      </trkpt>
      <trkpt lat="47.75945" lon="-3.4082">
        <ele>28</ele>
        <time>2012-02-22T13:02:51Z</time>
      </trkpt>
      <trkpt lat="47.75939" lon="-3.4083">
        <ele>28</ele>
        <time>2012-02-22T13:02:54Z</time>
      </trkpt>
      <trkpt lat="47.75924" lon="-3.40881">
        <ele>27</ele>
        <time>2012-02-22T13:03:05Z</time>
      </trkpt>
      <trkpt lat="47.75916" lon="-3.40931">
        <ele>23</ele>
        <time>2012-02-22T13:03:14Z</time>
      </trkpt>
      <trkpt lat="47.75911" lon="-3.40942">
        <ele>23</ele>
        <time>2012-02-22T13:03:16Z</time>
      </trkpt>
      <trkpt lat="47.75899" lon="-3.40955">
        <ele>22</ele>
        <time>2012-02-22T13:03:19Z</time>
      </trkpt>
      <trkpt lat="47.75895" lon="-3.4096">
        <ele>22</ele>
        <time>2012-02-22T13:03:20Z</time>
      </trkpt>
      <trkpt lat="47.75868" lon="-3.40975">
        <ele>22</ele>
        <time>2012-02-22T13:03:25Z</time>
      </trkpt>
      <trkpt lat="47.7585" lon="-3.40989">
        <ele>22</ele>
        <time>2012-02-22T13:03:29Z</time>
      </trkpt>
      <trkpt lat="47.75828" lon="-3.4101">
        <ele>21</ele>
        <time>2012-02-22T13:03:35Z</time>
      </trkpt>
      <trkpt lat="47.75812" lon="-3.4102">
        <ele>22</ele>
        <time>2012-02-22T13:03:39Z</time>
      </trkpt>
      <trkpt lat="47.758" lon="-3.41025">
        <ele>22</ele>
        <time>2012-02-22T13:03:42Z</time>
      </trkpt>
      <trkpt lat="47.75788" lon="-3.41028">
        <ele>22</ele>
        <time>2012-02-22T13:03:45Z</time>
      </trkpt>
      <trkpt lat="47.75749" lon="-3.4103">
        <ele>22</ele>
        <time>2012-02-22T13:03:55Z</time>
      </trkpt>
      <trkpt lat="47.75739" lon="-3.41033">
        <ele>22</ele>
        <time>2012-02-22T13:03:58Z</time>
      </trkpt>
      <trkpt lat="47.75735" lon="-3.41036">
        <ele>22</ele>
        <time>2012-02-22T13:03:59Z</time>
      </trkpt>
      <trkpt lat="47.75729" lon="-3.41044">
        <ele>22</ele>
        <time>2012-02-22T13:04:01Z</time>
      </trkpt>
      <trkpt lat="47.75725" lon="-3.4106">
        <ele>22</ele>
        <time>2012-02-22T13:04:04Z</time>
      </trkpt>
      <trkpt lat="47.75726" lon="-3.41088">
        <ele>24</ele>
        <time>2012-02-22T13:04:09Z</time>
      </trkpt>
      <trkpt lat="47.75729" lon="-3.41098">
        <ele>24</ele>
        <time>2012-02-22T13:04:11Z</time>
      </trkpt>
      <trkpt lat="47.75732" lon="-3.41106">
        <ele>25</ele>
        <time>2012-02-22T13:04:13Z</time>
      </trkpt>
      <trkpt lat="47.75754" lon="-3.41141">
        <ele>26</ele>
        <time>2012-02-22T13:04:24Z</time>
      </trkpt>
      <trkpt lat="47.75761" lon="-3.41155">
        <ele>27</ele>
        <time>2012-02-22T13:04:28Z</time>
      </trkpt>
      <trkpt lat="47.75762" lon="-3.41164">
        <ele>27</ele>
        <time>2012-02-22T13:04:30Z</time>
      </trkpt>
      <trkpt lat="47.75758" lon="-3.4118">
        <ele>28</ele>
        <time>2012-02-22T13:04:34Z</time>
      </trkpt>
      <trkpt lat="47.75742" lon="-3.41229">
        <ele>29</ele>
        <time>2012-02-22T13:04:45Z</time>
      </trkpt>
      <trkpt lat="47.75737" lon="-3.4125">
        <ele>29</ele>
        <time>2012-02-22T13:04:49Z</time>
      </trkpt>
      <trkpt lat="47.75732" lon="-3.41277">
        <ele>30</ele>
        <time>2012-02-22T13:04:55Z</time>
      </trkpt>
      <trkpt lat="47.75732" lon="-3.41291">
        <ele>30</ele>
        <time>2012-02-22T13:04:58Z</time>
      </trkpt>
      <trkpt lat="47.75738" lon="-3.41309">
        <ele>30</ele>
        <time>2012-02-22T13:05:02Z</time>
      </trkpt>
      <trkpt lat="47.75748" lon="-3.41332">
        <ele>32</ele>
        <time>2012-02-22T13:05:08Z</time>
      </trkpt>
      <trkpt lat="47.75751" lon="-3.41355">
        <ele>32</ele>
        <time>2012-02-22T13:05:13Z</time>
      </trkpt>
      <trkpt lat="47.75754" lon="-3.414">
        <ele>33</ele>
        <time>2012-02-22T13:05:23Z</time>
      </trkpt>
      <trkpt lat="47.75758" lon="-3.41422">
        <ele>33</ele>
        <time>2012-02-22T13:05:27Z</time>
      </trkpt>
      <trkpt lat="47.75763" lon="-3.41443">
        <ele>32</ele>
        <time>2012-02-22T13:05:31Z</time>
      </trkpt>
      <trkpt lat="47.7578" lon="-3.41497">
        <ele>32</ele>
        <time>2012-02-22T13:05:43Z</time>
      </trkpt>
      <trkpt lat="47.758" lon="-3.4158">
        <ele>30</ele>
        <time>2012-02-22T13:06:05Z</time>
      </trkpt>
      <trkpt lat="47.75804" lon="-3.41618">
        <ele>31</ele>
        <time>2012-02-22T13:06:14Z</time>
      </trkpt>
      <trkpt lat="47.75812" lon="-3.41757">
        <ele>33</ele>
        <time>2012-02-22T13:06:40Z</time>
      </trkpt>
      <trkpt lat="47.75812" lon="-3.41776">
        <ele>33</ele>
        <time>2012-02-22T13:06:44Z</time>
      </trkpt>
      <trkpt lat="47.7581" lon="-3.4179">
        <ele>33</ele>
        <time>2012-02-22T13:06:47Z</time>
      </trkpt>
      <trkpt lat="47.75788" lon="-3.41879">
        <ele>34</ele>
        <time>2012-02-22T13:07:05Z</time>
      </trkpt>
      <trkpt lat="47.75772" lon="-3.41957">
        <ele>36</ele>
        <time>2012-02-22T13:07:20Z</time>
      </trkpt>
      <trkpt lat="47.7577" lon="-3.41973">
        <ele>36</ele>
        <time>2012-02-22T13:07:23Z</time>
      </trkpt>
      <trkpt lat="47.7577" lon="-3.41996">
        <ele>36</ele>
        <time>2012-02-22T13:07:28Z</time>
      </trkpt>
      <trkpt lat="47.75766" lon="-3.42022">
        <ele>38</ele>
        <time>2012-02-22T13:07:37Z</time>
      </trkpt>
      <trkpt lat="47.7575" lon="-3.42102">
        <ele>39</ele>
        <time>2012-02-22T13:08:01Z</time>
      </trkpt>
      <trkpt lat="47.7575" lon="-3.42114">
        <ele>39</ele>
        <time>2012-02-22T13:08:29Z</time>
      </trkpt>
      <trkpt lat="47.75754" lon="-3.42121">
        <ele>39</ele>
        <time>2012-02-22T13:08:31Z</time>
      </trkpt>
      <trkpt lat="47.7579" lon="-3.42146">
        <ele>39</ele>
        <time>2012-02-22T13:08:40Z</time>
      </trkpt>
      <trkpt lat="47.75813" lon="-3.42164">
        <ele>39</ele>
        <time>2012-02-22T13:08:45Z</time>
      </trkpt>
      <trkpt lat="47.76018" lon="-3.42333">
        <ele>40</ele>
        <time>2012-02-22T13:09:27Z</time>
      </trkpt>
      <trkpt lat="47.76048" lon="-3.42355">
        <ele>40</ele>
        <time>2012-02-22T13:09:33Z</time>
      </trkpt>
      <trkpt lat="47.7607" lon="-3.42369">
        <ele>40</ele>
        <time>2012-02-22T13:09:37Z</time>
      </trkpt>
      <trkpt lat="47.76158" lon="-3.42412">
        <ele>38</ele>
        <time>2012-02-22T13:09:52Z</time>
      </trkpt>
      <trkpt lat="47.76185" lon="-3.42424">
        <ele>38</ele>
        <time>2012-02-22T13:09:56Z</time>
      </trkpt>
      <trkpt lat="47.76214" lon="-3.42434">
        <ele>37</ele>
        <time>2012-02-22T13:10:00Z</time>
      </trkpt>
      <trkpt lat="47.76279" lon="-3.42452">
        <ele>35</ele>
        <time>2012-02-22T13:10:08Z</time>
      </trkpt>
      <trkpt lat="47.76306" lon="-3.42457">
        <ele>35</ele>
        <time>2012-02-22T13:10:13Z</time>
      </trkpt>
      <trkpt lat="47.76309" lon="-3.42461">
        <ele>35</ele>
        <time>2012-02-22T13:11:29Z</time>
      </trkpt>
      <trkpt lat="47.76343" lon="-3.42474">
        <ele>34</ele>
        <time>2012-02-22T13:11:38Z</time>
      </trkpt>
      <trkpt lat="47.76403" lon="-3.42504">
        <ele>35</ele>
        <time>2012-02-22T13:11:51Z</time>
      </trkpt>
      <trkpt lat="47.76418" lon="-3.4251">
        <ele>35</ele>
        <time>2012-02-22T13:11:54Z</time>
      </trkpt>
      <trkpt lat="47.7644" lon="-3.42516">
        <ele>34</ele>
        <time>2012-02-22T13:11:58Z</time>
      </trkpt>
      <trkpt lat="47.76466" lon="-3.42518">
        <ele>34</ele>
        <time>2012-02-22T13:12:02Z</time>
      </trkpt>
      <trkpt lat="47.7648" lon="-3.42517">
        <ele>34</ele>
        <time>2012-02-22T13:12:04Z</time>
      </trkpt>
      <trkpt lat="47.76502" lon="-3.42512">
        <ele>32</ele>
        <time>2012-02-22T13:12:07Z</time>
      </trkpt>
      <trkpt lat="47.76678" lon="-3.42459">
        <ele>31</ele>
        <time>2012-02-22T13:12:31Z</time>
      </trkpt>
      <trkpt lat="47.76777" lon="-3.42431">
        <ele>35</ele>
        <time>2012-02-22T13:12:49Z</time>
      </trkpt>
      <trkpt lat="47.76797" lon="-3.42423">
        <ele>35</ele>
        <time>2012-02-22T13:12:53Z</time>
      </trkpt>
      <trkpt lat="47.76819" lon="-3.4241">
        <ele>36</ele>
        <time>2012-02-22T13:12:58Z</time>
      </trkpt>
      <trkpt lat="47.76843" lon="-3.4239">
        <ele>36</ele>
        <time>2012-02-22T13:13:04Z</time>
      </trkpt>
      <trkpt lat="47.7686" lon="-3.42367">
        <ele>36</ele>
        <time>2012-02-22T13:13:09Z</time>
      </trkpt>
      <trkpt lat="47.76875" lon="-3.42339">
        <ele>37</ele>
        <time>2012-02-22T13:13:14Z</time>
      </trkpt>
      <trkpt lat="47.76912" lon="-3.42263">
        <ele>39</ele>
        <time>2012-02-22T13:13:27Z</time>
      </trkpt>
      <trkpt lat="47.76943" lon="-3.42211">
        <ele>40</ele>
        <time>2012-02-22T13:13:37Z</time>
      </trkpt>
      <trkpt lat="47.7696" lon="-3.42188">
        <ele>41</ele>
        <time>2012-02-22T13:13:42Z</time>
      </trkpt>
      <trkpt lat="47.76976" lon="-3.42172">
        <ele>41</ele>
        <time>2012-02-22T13:13:46Z</time>
      </trkpt>
      <trkpt lat="47.76997" lon="-3.42155">
        <ele>41</ele>
        <time>2012-02-22T13:13:51Z</time>
      </trkpt>
      <trkpt lat="47.77147" lon="-3.42052">
        <ele>41</ele>
        <time>2012-02-22T13:15:08Z</time>
      </trkpt>
      <trkpt lat="47.77151" lon="-3.42055">
        <ele>41</ele>
        <time>2012-02-22T13:15:10Z</time>
      </trkpt>
      <trkpt lat="47.77158" lon="-3.42085">
        <ele>41</ele>
        <time>2012-02-22T13:15:16Z</time>
      </trkpt>
      <trkpt lat="47.77182" lon="-3.42152">
        <ele>38</ele>
        <time>2012-02-22T13:15:27Z</time>
      </trkpt>
      <trkpt lat="47.77199" lon="-3.42203">
        <ele>35</ele>
        <time>2012-02-22T13:15:34Z</time>
      </trkpt>
      <trkpt lat="47.77263" lon="-3.42461">
        <ele>41</ele>
        <time>2012-02-22T13:16:45Z</time>
      </trkpt>
      <trkpt lat="47.77273" lon="-3.42456">
        <ele>41</ele>
        <time>2012-02-22T13:16:49Z</time>
      </trkpt>
      <trkpt lat="47.77301" lon="-3.42448">
        <ele>41</ele>
        <time>2012-02-22T13:16:57Z</time>
      </trkpt>
      <trkpt lat="47.77318" lon="-3.42441">
        <ele>41</ele>
        <time>2012-02-22T13:17:03Z</time>
      </trkpt>
      <trkpt lat="47.77323" lon="-3.42438">
        <ele>41</ele>
        <time>2012-02-22T13:17:37Z</time>
      </trkpt>
      <trkpt lat="47.77336" lon="-3.4242">
        <ele>40</ele>
        <time>2012-02-22T13:17:41Z</time>
      </trkpt>
      <trkpt lat="47.77365" lon="-3.42404">
        <ele>40</ele>
        <time>2012-02-22T13:17:47Z</time>
      </trkpt>
      <trkpt lat="47.77395" lon="-3.42386">
        <ele>41</ele>
        <time>2012-02-22T13:17:54Z</time>
      </trkpt>
      <trkpt lat="47.77418" lon="-3.42377">
        <ele>42</ele>
        <time>2012-02-22T13:17:59Z</time>
      </trkpt>
      <trkpt lat="47.77448" lon="-3.42373">
        <ele>42</ele>
        <time>2012-02-22T13:18:06Z</time>
      </trkpt>
      <trkpt lat="47.77454" lon="-3.42365">
        <ele>42</ele>
        <time>2012-02-22T13:18:08Z</time>
      </trkpt>
      <trkpt lat="47.77462" lon="-3.42341">
        <ele>41</ele>
        <time>2012-02-22T13:18:12Z</time>
      </trkpt>
      <trkpt lat="47.77464" lon="-3.42335">
        <ele>41</ele>
        <time>2012-02-22T13:18:13Z</time>
      </trkpt>
      <trkpt lat="47.77468" lon="-3.4233">
        <ele>40</ele>
        <time>2012-02-22T13:18:14Z</time>
      </trkpt>
      <trkpt lat="47.77474" lon="-3.42326">
        <ele>40</ele>
        <time>2012-02-22T13:18:16Z</time>
      </trkpt>
      <trkpt lat="47.77477" lon="-3.42326">
        <ele>40</ele>
        <time>2012-02-22T13:18:17Z</time>
      </trkpt>
      <trkpt lat="47.7748" lon="-3.4233">
        <ele>40</ele>
        <time>2012-02-22T13:18:19Z</time>
      </trkpt>
      <trkpt lat="47.7748" lon="-3.42343">
        <ele>41</ele>
        <time>2012-02-22T13:18:45Z</time>
      </trkpt>
      <trkpt lat="47.77473" lon="-3.42433">
        <ele>43</ele>
        <time>2012-02-22T13:19:04Z</time>
      </trkpt>
      <trkpt lat="47.77471" lon="-3.4253">
        <ele>43</ele>
        <time>2012-02-22T13:19:22Z</time>
      </trkpt>
      <trkpt lat="47.77472" lon="-3.42532">
        <ele>43</ele>
        <time>2012-02-22T13:19:37Z</time>
      </trkpt>
      <trkpt lat="47.77482" lon="-3.42528">
        <ele>43</ele>
        <time>2012-02-22T13:19:41Z</time>
      </trkpt>
      <trkpt lat="47.77542" lon="-3.4249">
        <ele>42</ele>
        <time>2012-02-22T13:19:56Z</time>
      </trkpt>
      <trkpt lat="47.7763" lon="-3.42431">
        <ele>40</ele>
        <time>2012-02-22T13:20:15Z</time>
      </trkpt>
      <trkpt lat="47.77688" lon="-3.424">
        <ele>43</ele>
        <time>2012-02-22T13:20:32Z</time>
      </trkpt>
      <trkpt lat="47.77722" lon="-3.42384">
        <ele>45</ele>
        <time>2012-02-22T13:21:08Z</time>
      </trkpt>
      <trkpt lat="47.77724" lon="-3.42385">
        <ele>45</ele>
        <time>2012-02-22T13:21:09Z</time>
      </trkpt>
      <trkpt lat="47.77727" lon="-3.42389">
        <ele>45</ele>
        <time>2012-02-22T13:21:10Z</time>
      </trkpt>
      <trkpt lat="47.77742" lon="-3.42447">
        <ele>43</ele>
        <time>2012-02-22T13:21:18Z</time>
      </trkpt>
      <trkpt lat="47.77754" lon="-3.42484">
        <ele>44</ele>
        <time>2012-02-22T13:21:23Z</time>
      </trkpt>
      <trkpt lat="47.77797" lon="-3.42599">
        <ele>40</ele>
        <time>2012-02-22T13:21:42Z</time>
      </trkpt>
      <trkpt lat="47.77806" lon="-3.4263">
        <ele>40</ele>
        <time>2012-02-22T13:21:48Z</time>
      </trkpt>
      <trkpt lat="47.77812" lon="-3.4266">
        <ele>40</ele>
        <time>2012-02-22T13:21:54Z</time>
      </trkpt>
      <trkpt lat="47.77839" lon="-3.42776">
        <ele>50</ele>
        <time>2012-02-22T13:22:18Z</time>
      </trkpt>
      <trkpt lat="47.77849" lon="-3.42833">
        <ele>51</ele>
        <time>2012-02-22T13:22:29Z</time>
      </trkpt>
      <trkpt lat="47.77858" lon="-3.42877">
        <ele>52</ele>
        <time>2012-02-22T13:22:38Z</time>
      </trkpt>
      <trkpt lat="47.77874" lon="-3.42991">
        <ele>53</ele>
        <time>2012-02-22T13:23:01Z</time>
      </trkpt>
      <trkpt lat="47.77916" lon="-3.43234">
        <ele>54</ele>
        <time>2012-02-22T13:23:47Z</time>
      </trkpt>
      <trkpt lat="47.77975" lon="-3.43619">
        <ele>62</ele>
        <time>2012-02-22T13:25:25Z</time>
      </trkpt>
      <trkpt lat="47.77993" lon="-3.43724">
        <ele>63</ele>
        <time>2012-02-22T13:25:44Z</time>
      </trkpt>
      <trkpt lat="47.78011" lon="-3.43858">
        <ele>63</ele>
        <time>2012-02-22T13:26:05Z</time>
      </trkpt>
      <trkpt lat="47.78015" lon="-3.43897">
        <ele>64</ele>
        <time>2012-02-22T13:26:12Z</time>
      </trkpt>
      <trkpt lat="47.78024" lon="-3.43951">
        <ele>64</ele>
        <time>2012-02-22T13:26:23Z</time>
      </trkpt>
      <trkpt lat="47.78045" lon="-3.44052">
        <ele>63</ele>
        <time>2012-02-22T13:26:43Z</time>
      </trkpt>
      <trkpt lat="47.78061" lon="-3.44097">
        <ele>63</ele>
        <time>2012-02-22T13:26:52Z</time>
      </trkpt>
      <trkpt lat="47.78076" lon="-3.44132">
        <ele>63</ele>
        <time>2012-02-22T13:26:59Z</time>
      </trkpt>
      <trkpt lat="47.78075" lon="-3.44145">
        <ele>64</ele>
        <time>2012-02-22T13:27:01Z</time>
      </trkpt>
      <trkpt lat="47.7807" lon="-3.44167">
        <ele>65</ele>
        <time>2012-02-22T13:27:04Z</time>
      </trkpt>
      <trkpt lat="47.78066" lon="-3.44193">
        <ele>65</ele>
        <time>2012-02-22T13:27:07Z</time>
      </trkpt>
      <trkpt lat="47.78056" lon="-3.4424">
        <ele>65</ele>
        <time>2012-02-22T13:27:12Z</time>
      </trkpt>
      <trkpt lat="47.78034" lon="-3.44313">
        <ele>62</ele>
        <time>2012-02-22T13:27:19Z</time>
      </trkpt>
      <trkpt lat="47.78005" lon="-3.44395">
        <ele>58</ele>
        <time>2012-02-22T13:27:27Z</time>
      </trkpt>
      <trkpt lat="47.77991" lon="-3.44443">
        <ele>55</ele>
        <time>2012-02-22T13:27:32Z</time>
      </trkpt>
      <trkpt lat="47.77985" lon="-3.44469">
        <ele>55</ele>
        <time>2012-02-22T13:27:35Z</time>
      </trkpt>
      <trkpt lat="47.77982" lon="-3.44492">
        <ele>55</ele>
        <time>2012-02-22T13:27:38Z</time>
      </trkpt>
      <trkpt lat="47.77979" lon="-3.44641">
        <ele>55</ele>
        <time>2012-02-22T13:27:59Z</time>
      </trkpt>
      <trkpt lat="47.77972" lon="-3.44763">
        <ele>55</ele>
        <time>2012-02-22T13:28:17Z</time>
      </trkpt>
      <trkpt lat="47.77969" lon="-3.44882">
        <ele>55</ele>
        <time>2012-02-22T13:28:36Z</time>
      </trkpt>
      <trkpt lat="47.77966" lon="-3.45089">
        <ele>58</ele>
        <time>2012-02-22T13:29:13Z</time>
      </trkpt>
      <trkpt lat="47.77967" lon="-3.45129">
        <ele>58</ele>
        <time>2012-02-22T13:29:20Z</time>
      </trkpt>
      <trkpt lat="47.77971" lon="-3.45172">
        <ele>57</ele>
        <time>2012-02-22T13:29:29Z</time>
      </trkpt>
      <trkpt lat="47.77997" lon="-3.45365">
        <ele>55</ele>
        <time>2012-02-22T13:29:59Z</time>
      </trkpt>
      <trkpt lat="47.78" lon="-3.45403">
        <ele>54</ele>
        <time>2012-02-22T13:30:04Z</time>
      </trkpt>
      <trkpt lat="47.78001" lon="-3.45452">
        <ele>56</ele>
        <time>2012-02-22T13:30:10Z</time>
      </trkpt>
      <trkpt lat="47.78" lon="-3.45547">
        <ele>57</ele>
        <time>2012-02-22T13:30:23Z</time>
      </trkpt>
      <trkpt lat="47.77999" lon="-3.45597">
        <ele>56</ele>
        <time>2012-02-22T13:30:31Z</time>
      </trkpt>
      <trkpt lat="47.77999" lon="-3.45693">
        <ele>53</ele>
        <time>2012-02-22T13:30:44Z</time>
      </trkpt>
      <trkpt lat="47.77996" lon="-3.45752">
        <ele>54</ele>
        <time>2012-02-22T13:30:52Z</time>
      </trkpt>
      <trkpt lat="47.77989" lon="-3.4582">
        <ele>55</ele>
        <time>2012-02-22T13:31:01Z</time>
      </trkpt>
      <trkpt lat="47.7798" lon="-3.45889">
        <ele>56</ele>
        <time>2012-02-22T13:31:10Z</time>
      </trkpt>
      <trkpt lat="47.77977" lon="-3.45935">
        <ele>57</ele>
        <time>2012-02-22T13:31:16Z</time>
      </trkpt>
      <trkpt lat="47.77968" lon="-3.46006">
        <ele>55</ele>
        <time>2012-02-22T13:31:25Z</time>
      </trkpt>
      <trkpt lat="47.77933" lon="-3.46209">
        <ele>52</ele>
        <time>2012-02-22T13:31:54Z</time>
      </trkpt>
      <trkpt lat="47.77934" lon="-3.46221">
        <ele>52</ele>
        <time>2012-02-22T13:31:56Z</time>
      </trkpt>
      <trkpt lat="47.77937" lon="-3.46231">
        <ele>52</ele>
        <time>2012-02-22T13:31:58Z</time>
      </trkpt>
      <trkpt lat="47.77936" lon="-3.46241">
        <ele>52</ele>
        <time>2012-02-22T13:32:00Z</time>
      </trkpt>
      <trkpt lat="47.77934" lon="-3.46245">
        <ele>52</ele>
        <time>2012-02-22T13:32:01Z</time>
      </trkpt>
      <trkpt lat="47.77931" lon="-3.46247">
        <ele>51</ele>
        <time>2012-02-22T13:32:02Z</time>
      </trkpt>
      <trkpt lat="47.77927" lon="-3.46246">
        <ele>51</ele>
        <time>2012-02-22T13:32:03Z</time>
      </trkpt>
      <trkpt lat="47.77924" lon="-3.46243">
        <ele>51</ele>
        <time>2012-02-22T13:32:04Z</time>
      </trkpt>
      <trkpt lat="47.7792" lon="-3.46227">
        <ele>52</ele>
        <time>2012-02-22T13:32:07Z</time>
      </trkpt>
      <trkpt lat="47.77917" lon="-3.46223">
        <ele>52</ele>
        <time>2012-02-22T13:32:08Z</time>
      </trkpt>
      <trkpt lat="47.77911" lon="-3.46219">
        <ele>51</ele>
        <time>2012-02-22T13:32:10Z</time>
      </trkpt>
      <trkpt lat="47.77882" lon="-3.46213">
        <ele>51</ele>
        <time>2012-02-22T13:32:16Z</time>
      </trkpt>
      <trkpt lat="47.77845" lon="-3.46212">
        <ele>50</ele>
        <time>2012-02-22T13:32:22Z</time>
      </trkpt>
      <trkpt lat="47.77827" lon="-3.46214">
        <ele>48</ele>
        <time>2012-02-22T13:32:25Z</time>
      </trkpt>
      <trkpt lat="47.77815" lon="-3.46218">
        <ele>48</ele>
        <time>2012-02-22T13:32:27Z</time>
      </trkpt>
      <trkpt lat="47.77793" lon="-3.46238">
        <ele>47</ele>
        <time>2012-02-22T13:32:32Z</time>
      </trkpt>
      <trkpt lat="47.77787" lon="-3.46247">
        <ele>47</ele>
        <time>2012-02-22T13:32:34Z</time>
      </trkpt>
      <trkpt lat="47.77777" lon="-3.46275">
        <ele>49</ele>
        <time>2012-02-22T13:32:39Z</time>
      </trkpt>
      <trkpt lat="47.77753" lon="-3.46397">
        <ele>51</ele>
        <time>2012-02-22T13:33:00Z</time>
      </trkpt>
      <trkpt lat="47.77748" lon="-3.46415">
        <ele>50</ele>
        <time>2012-02-22T13:33:03Z</time>
      </trkpt>
      <trkpt lat="47.77734" lon="-3.46447">
        <ele>48</ele>
        <time>2012-02-22T13:33:09Z</time>
      </trkpt>
      <trkpt lat="47.77698" lon="-3.46501">
        <ele>44</ele>
        <time>2012-02-22T13:33:19Z</time>
      </trkpt>
      <trkpt lat="47.7769" lon="-3.46519">
        <ele>44</ele>
        <time>2012-02-22T13:33:22Z</time>
      </trkpt>
      <trkpt lat="47.77682" lon="-3.46543">
        <ele>43</ele>
        <time>2012-02-22T13:33:26Z</time>
      </trkpt>
      <trkpt lat="47.77662" lon="-3.4663">
        <ele>38</ele>
        <time>2012-02-22T13:33:40Z</time>
      </trkpt>
      <trkpt lat="47.77659" lon="-3.46651">
        <ele>38</ele>
        <time>2012-02-22T13:33:43Z</time>
      </trkpt>
      <trkpt lat="47.77658" lon="-3.46665">
        <ele>39</ele>
        <time>2012-02-22T13:33:45Z</time>
      </trkpt>
      <trkpt lat="47.7766" lon="-3.46684">
        <ele>38</ele>
        <time>2012-02-22T13:33:48Z</time>
      </trkpt>
      <trkpt lat="47.77677" lon="-3.4675">
        <ele>41</ele>
        <time>2012-02-22T13:34:01Z</time>
      </trkpt>
      <trkpt lat="47.77687" lon="-3.46802">
        <ele>39</ele>
        <time>2012-02-22T13:34:10Z</time>
      </trkpt>
      <trkpt lat="47.77689" lon="-3.46827">
        <ele>38</ele>
        <time>2012-02-22T13:34:14Z</time>
      </trkpt>
      <trkpt lat="47.77688" lon="-3.46853">
        <ele>36</ele>
        <time>2012-02-22T13:34:18Z</time>
      </trkpt>
      <trkpt lat="47.77681" lon="-3.46886">
        <ele>35</ele>
        <time>2012-02-22T13:34:23Z</time>
      </trkpt>
      <trkpt lat="47.77624" lon="-3.47054">
        <ele>37</ele>
        <time>2012-02-22T13:34:44Z</time>
      </trkpt>
      <trkpt lat="47.77619" lon="-3.47065">
        <ele>37</ele>
        <time>2012-02-22T13:34:45Z</time>
      </trkpt>
      <trkpt lat="47.77607" lon="-3.47082">
        <ele>37</ele>
        <time>2012-02-22T13:34:47Z</time>
      </trkpt>
      <trkpt lat="47.77593" lon="-3.47091">
        <ele>39</ele>
        <time>2012-02-22T13:34:49Z</time>
      </trkpt>
      <trkpt lat="47.77586" lon="-3.47093">
        <ele>39</ele>
        <time>2012-02-22T13:34:50Z</time>
      </trkpt>
      <trkpt lat="47.77544" lon="-3.4709">
        <ele>37</ele>
        <time>2012-02-22T13:34:58Z</time>
      </trkpt>
      <trkpt lat="47.7753" lon="-3.47091">
        <ele>36</ele>
        <time>2012-02-22T13:35:01Z</time>
      </trkpt>
      <trkpt lat="47.7751" lon="-3.47098">
        <ele>36</ele>
        <time>2012-02-22T13:35:06Z</time>
      </trkpt>
      <trkpt lat="47.77498" lon="-3.47103">
        <ele>33</ele>
        <time>2012-02-22T13:35:09Z</time>
      </trkpt>
      <trkpt lat="47.77492" lon="-3.47109">
        <ele>33</ele>
        <time>2012-02-22T13:35:11Z</time>
      </trkpt>
      <trkpt lat="47.77483" lon="-3.47118">
        <ele>32</ele>
        <time>2012-02-22T13:35:14Z</time>
      </trkpt>
      <trkpt lat="47.77472" lon="-3.47137">
        <ele>32</ele>
        <time>2012-02-22T13:35:19Z</time>
      </trkpt>
      <trkpt lat="47.77447" lon="-3.47199">
        <ele>32</ele>
        <time>2012-02-22T13:35:31Z</time>
      </trkpt>
      <trkpt lat="47.77433" lon="-3.47213">
        <ele>31</ele>
        <time>2012-02-22T13:35:35Z</time>
      </trkpt>
      <trkpt lat="47.7742" lon="-3.47218">
        <ele>31</ele>
        <time>2012-02-22T13:35:38Z</time>
      </trkpt>
      <trkpt lat="47.77412" lon="-3.47218">
        <ele>30</ele>
        <time>2012-02-22T13:35:40Z</time>
      </trkpt>
      <trkpt lat="47.77406" lon="-3.47215">
        <ele>30</ele>
        <time>2012-02-22T13:35:42Z</time>
      </trkpt>
      <trkpt lat="47.77394" lon="-3.47199">
        <ele>30</ele>
        <time>2012-02-22T13:35:48Z</time>
      </trkpt>
      <trkpt lat="47.77386" lon="-3.47183">
        <ele>30</ele>
        <time>2012-02-22T13:35:53Z</time>
      </trkpt>
      <trkpt lat="47.77372" lon="-3.47172">
        <ele>30</ele>
        <time>2012-02-22T13:35:58Z</time>
      </trkpt>
      <trkpt lat="47.77358" lon="-3.47169">
        <ele>30</ele>
        <time>2012-02-22T13:36:02Z</time>
      </trkpt>
      <trkpt lat="47.77338" lon="-3.47171">
        <ele>30</ele>
        <time>2012-02-22T13:36:07Z</time>
      </trkpt>
      <trkpt lat="47.77283" lon="-3.47184">
        <ele>31</ele>
        <time>2012-02-22T13:36:22Z</time>
      </trkpt>
      <trkpt lat="47.77241" lon="-3.47202">
        <ele>32</ele>
        <time>2012-02-22T13:36:36Z</time>
      </trkpt>
      <trkpt lat="47.77171" lon="-3.47227">
        <ele>33</ele>
        <time>2012-02-22T13:37:03Z</time>
      </trkpt>
      <trkpt lat="47.77085" lon="-3.47213">
        <ele>32</ele>
        <time>2012-02-22T13:37:30Z</time>
      </trkpt>
      <trkpt lat="47.77029" lon="-3.47186">
        <ele>30</ele>
        <time>2012-02-22T13:37:45Z</time>
      </trkpt>
      <trkpt lat="47.77013" lon="-3.47175">
        <ele>30</ele>
        <time>2012-02-22T13:37:49Z</time>
      </trkpt>
      <trkpt lat="47.77002" lon="-3.4716">
        <ele>29</ele>
        <time>2012-02-22T13:37:52Z</time>
      </trkpt>
      <trkpt lat="47.76992" lon="-3.47142">
        <ele>29</ele>
        <time>2012-02-22T13:37:55Z</time>
      </trkpt>
      <trkpt lat="47.76937" lon="-3.47022">
        <ele>29</ele>
        <time>2012-02-22T13:38:17Z</time>
      </trkpt>
      <trkpt lat="47.76929" lon="-3.46997">
        <ele>31</ele>
        <time>2012-02-22T13:38:22Z</time>
      </trkpt>
      <trkpt lat="47.76916" lon="-3.46943">
        <ele>33</ele>
        <time>2012-02-22T13:38:32Z</time>
      </trkpt>
      <trkpt lat="47.76908" lon="-3.46917">
        <ele>33</ele>
        <time>2012-02-22T13:38:37Z</time>
      </trkpt>
      <trkpt lat="47.76895" lon="-3.46894">
        <ele>36</ele>
        <time>2012-02-22T13:38:42Z</time>
      </trkpt>
      <trkpt lat="47.76878" lon="-3.46872">
        <ele>37</ele>
        <time>2012-02-22T13:38:48Z</time>
      </trkpt>
      <trkpt lat="47.76822" lon="-3.46824">
        <ele>40</ele>
        <time>2012-02-22T13:39:05Z</time>
      </trkpt>
      <trkpt lat="47.76769" lon="-3.46783">
        <ele>39</ele>
        <time>2012-02-22T13:39:19Z</time>
      </trkpt>
      <trkpt lat="47.76739" lon="-3.46763">
        <ele>38</ele>
        <time>2012-02-22T13:39:26Z</time>
      </trkpt>
      <trkpt lat="47.7673" lon="-3.4676">
        <ele>38</ele>
        <time>2012-02-22T13:39:28Z</time>
      </trkpt>
      <trkpt lat="47.76716" lon="-3.46758">
        <ele>38</ele>
        <time>2012-02-22T13:39:31Z</time>
      </trkpt>
      <trkpt lat="47.76656" lon="-3.46758">
        <ele>38</ele>
        <time>2012-02-22T13:39:45Z</time>
      </trkpt>
      <trkpt lat="47.76635" lon="-3.46756">
        <ele>38</ele>
        <time>2012-02-22T13:39:51Z</time>
      </trkpt>
      <trkpt lat="47.76629" lon="-3.46753">
        <ele>38</ele>
        <time>2012-02-22T13:39:53Z</time>
      </trkpt>
      <trkpt lat="47.76627" lon="-3.46746">
        <ele>37</ele>
        <time>2012-02-22T13:39:55Z</time>
      </trkpt>
      <trkpt lat="47.76628" lon="-3.46724">
        <ele>37</ele>
        <time>2012-02-22T13:40:00Z</time>
      </trkpt>
      <trkpt lat="47.76651" lon="-3.46574">
        <ele>36</ele>
        <time>2012-02-22T13:40:25Z</time>
      </trkpt>
      <trkpt lat="47.76652" lon="-3.46549">
        <ele>36</ele>
        <time>2012-02-22T13:40:29Z</time>
      </trkpt>
      <trkpt lat="47.76649" lon="-3.46489">
        <ele>37</ele>
        <time>2012-02-22T13:40:39Z</time>
      </trkpt>
      <trkpt lat="47.76643" lon="-3.46451">
        <ele>37</ele>
        <time>2012-02-22T13:40:45Z</time>
      </trkpt>
      <trkpt lat="47.76603" lon="-3.46285">
        <ele>35</ele>
        <time>2012-02-22T13:41:21Z</time>
      </trkpt>
      <trkpt lat="47.7659" lon="-3.46215">
        <ele>35</ele>
        <time>2012-02-22T13:41:38Z</time>
      </trkpt>
      <trkpt lat="47.76586" lon="-3.46204">
        <ele>35</ele>
        <time>2012-02-22T13:41:42Z</time>
      </trkpt>
      <trkpt lat="47.76582" lon="-3.46202">
        <ele>37</ele>
        <time>2012-02-22T13:41:44Z</time>
      </trkpt>
      <trkpt lat="47.76566" lon="-3.462">
        <ele>37</ele>
        <time>2012-02-22T13:41:51Z</time>
      </trkpt>
      <trkpt lat="47.76524" lon="-3.462">
        <ele>37</ele>
        <time>2012-02-22T13:42:08Z</time>
      </trkpt>
      <trkpt lat="47.76495" lon="-3.46195">
        <ele>38</ele>
        <time>2012-02-22T13:42:19Z</time>
      </trkpt>
      <trkpt lat="47.76479" lon="-3.46195">
        <ele>38</ele>
        <time>2012-02-22T13:42:27Z</time>
      </trkpt>
      <trkpt lat="47.76463" lon="-3.46198">
        <ele>38</ele>
        <time>2012-02-22T13:42:36Z</time>
      </trkpt>
      <trkpt lat="47.76454" lon="-3.46199">
        <ele>38</ele>
        <time>2012-02-22T13:42:41Z</time>
      </trkpt>
      <trkpt lat="47.76441" lon="-3.46197">
        <ele>38</ele>
        <time>2012-02-22T13:42:48Z</time>
      </trkpt>
      <trkpt lat="47.76431" lon="-3.46192">
        <ele>38</ele>
        <time>2012-02-22T13:42:53Z</time>
      </trkpt>
      <trkpt lat="47.76404" lon="-3.46198">
        <ele>38</ele>
        <time>2012-02-22T13:43:04Z</time>
      </trkpt>
      <trkpt lat="47.7637" lon="-3.46193">
        <ele>37</ele>
        <time>2012-02-22T13:43:18Z</time>
      </trkpt>
      <trkpt lat="47.76366" lon="-3.46195">
        <ele>37</ele>
        <time>2012-02-22T13:43:20Z</time>
      </trkpt>
      <trkpt lat="47.76363" lon="-3.46201">
        <ele>37</ele>
        <time>2012-02-22T13:43:22Z</time>
      </trkpt>
      <trkpt lat="47.76348" lon="-3.46257">
        <ele>38</ele>
        <time>2012-02-22T13:43:35Z</time>
      </trkpt>
      <trkpt lat="47.76336" lon="-3.46325">
        <ele>39</ele>
        <time>2012-02-22T13:43:50Z</time>
      </trkpt>
      <trkpt lat="47.7633" lon="-3.46345">
        <ele>38</ele>
        <time>2012-02-22T13:43:55Z</time>
      </trkpt>
      <trkpt lat="47.76232" lon="-3.46489">
        <ele>35</ele>
        <time>2012-02-22T13:44:36Z</time>
      </trkpt>
      <trkpt lat="47.76214" lon="-3.46516">
        <ele>36</ele>
        <time>2012-02-22T13:44:44Z</time>
      </trkpt>
      <trkpt lat="47.76207" lon="-3.4653">
        <ele>35</ele>
        <time>2012-02-22T13:44:49Z</time>
      </trkpt>
      <trkpt lat="47.76205" lon="-3.46532">
        <ele>35</ele>
        <time>2012-02-22T13:44:50Z</time>
      </trkpt>
      <trkpt lat="47.762" lon="-3.46534">
        <ele>35</ele>
        <time>2012-02-22T13:44:52Z</time>
      </trkpt>
      <trkpt lat="47.76186" lon="-3.46529">
        <ele>35</ele>
        <time>2012-02-22T13:44:57Z</time>
      </trkpt>
      <trkpt lat="47.76137" lon="-3.46499">
        <ele>35</ele>
        <time>2012-02-22T13:45:14Z</time>
      </trkpt>
      <trkpt lat="47.76122" lon="-3.46492">
        <ele>35</ele>
        <time>2012-02-22T13:45:19Z</time>
      </trkpt>
      <trkpt lat="47.76116" lon="-3.46489">
        <ele>35</ele>
        <time>2012-02-22T13:45:25Z</time>
      </trkpt>
      <trkpt lat="47.76114" lon="-3.4649">
        <ele>35</ele>
        <time>2012-02-22T13:45:36Z</time>
      </trkpt>
      <trkpt lat="47.76113" lon="-3.46483">
        <ele>35</ele>
        <time>2012-02-22T13:46:46Z</time>
      </trkpt>
      <trkpt lat="47.7611" lon="-3.46477">
        <ele>35</ele>
        <time>2012-02-22T13:46:56Z</time>
      </trkpt>
      <trkpt lat="47.76067" lon="-3.46451">
        <ele>34</ele>
        <time>2012-02-22T13:47:12Z</time>
      </trkpt>
      <trkpt lat="47.76053" lon="-3.46435">
        <ele>34</ele>
        <time>2012-02-22T13:47:16Z</time>
      </trkpt>
      <trkpt lat="47.76043" lon="-3.46418">
        <ele>34</ele>
        <time>2012-02-22T13:47:19Z</time>
      </trkpt>
      <trkpt lat="47.76011" lon="-3.46351">
        <ele>34</ele>
        <time>2012-02-22T13:47:29Z</time>
      </trkpt>
      <trkpt lat="47.76007" lon="-3.46346">
        <ele>34</ele>
        <time>2012-02-22T13:47:30Z</time>
      </trkpt>
      <trkpt lat="47.75995" lon="-3.46335">
        <ele>35</ele>
        <time>2012-02-22T13:47:33Z</time>
      </trkpt>
      <trkpt lat="47.75985" lon="-3.46331">
        <ele>35</ele>
        <time>2012-02-22T13:47:35Z</time>
      </trkpt>
      <trkpt lat="47.75976" lon="-3.46332">
        <ele>35</ele>
        <time>2012-02-22T13:47:37Z</time>
      </trkpt>
      <trkpt lat="47.7593" lon="-3.46344">
        <ele>34</ele>
        <time>2012-02-22T13:47:48Z</time>
      </trkpt>
      <trkpt lat="47.75922" lon="-3.46344">
        <ele>34</ele>
        <time>2012-02-22T13:47:50Z</time>
      </trkpt>
      <trkpt lat="47.75909" lon="-3.46342">
        <ele>33</ele>
        <time>2012-02-22T13:47:53Z</time>
      </trkpt>
      <trkpt lat="47.75897" lon="-3.46334">
        <ele>32</ele>
        <time>2012-02-22T13:47:56Z</time>
      </trkpt>
      <trkpt lat="47.75887" lon="-3.46324">
        <ele>33</ele>
        <time>2012-02-22T13:47:59Z</time>
      </trkpt>
      <trkpt lat="47.75866" lon="-3.46301">
        <ele>33</ele>
        <time>2012-02-22T13:48:05Z</time>
      </trkpt>
      <trkpt lat="47.75823" lon="-3.46239">
        <ele>33</ele>
        <time>2012-02-22T13:48:20Z</time>
      </trkpt>
      <trkpt lat="47.75813" lon="-3.46229">
        <ele>34</ele>
        <time>2012-02-22T13:48:23Z</time>
      </trkpt>
      <trkpt lat="47.75806" lon="-3.46224">
        <ele>34</ele>
        <time>2012-02-22T13:48:25Z</time>
      </trkpt>
      <trkpt lat="47.75789" lon="-3.46218">
        <ele>34</ele>
        <time>2012-02-22T13:48:29Z</time>
      </trkpt>
      <trkpt lat="47.75771" lon="-3.46216">
        <ele>33</ele>
        <time>2012-02-22T13:48:33Z</time>
      </trkpt>
      <trkpt lat="47.75728" lon="-3.46222">
        <ele>33</ele>
        <time>2012-02-22T13:48:42Z</time>
      </trkpt>
      <trkpt lat="47.7571" lon="-3.46223">
        <ele>33</ele>
        <time>2012-02-22T13:48:46Z</time>
      </trkpt>
      <trkpt lat="47.75614" lon="-3.46227">
        <ele>34</ele>
        <time>2012-02-22T13:49:11Z</time>
      </trkpt>
      <trkpt lat="47.75602" lon="-3.46226">
        <ele>34</ele>
        <time>2012-02-22T13:49:14Z</time>
      </trkpt>
      <trkpt lat="47.75588" lon="-3.46223">
        <ele>34</ele>
        <time>2012-02-22T13:49:18Z</time>
      </trkpt>
      <trkpt lat="47.7557" lon="-3.46216">
        <ele>34</ele>
        <time>2012-02-22T13:49:24Z</time>
      </trkpt>
      <trkpt lat="47.75552" lon="-3.46205">
        <ele>34</ele>
        <time>2012-02-22T13:49:30Z</time>
      </trkpt>
      <trkpt lat="47.75528" lon="-3.46184">
        <ele>34</ele>
        <time>2012-02-22T13:49:39Z</time>
      </trkpt>
      <trkpt lat="47.75506" lon="-3.46169">
        <ele>34</ele>
        <time>2012-02-22T13:49:46Z</time>
      </trkpt>
      <trkpt lat="47.75445" lon="-3.4614">
        <ele>34</ele>
        <time>2012-02-22T13:50:05Z</time>
      </trkpt>
      <trkpt lat="47.75412" lon="-3.46114">
        <ele>35</ele>
        <time>2012-02-22T13:50:16Z</time>
      </trkpt>
      <trkpt lat="47.75396" lon="-3.461">
        <ele>35</ele>
        <time>2012-02-22T13:50:22Z</time>
      </trkpt>
      <trkpt lat="47.75378" lon="-3.46088">
        <ele>35</ele>
        <time>2012-02-22T13:50:28Z</time>
      </trkpt>
      <trkpt lat="47.75309" lon="-3.46057">
        <ele>35</ele>
        <time>2012-02-22T13:50:49Z</time>
      </trkpt>
      <trkpt lat="47.75289" lon="-3.46052">
        <ele>34</ele>
        <time>2012-02-22T13:51:07Z</time>
      </trkpt>
      <trkpt lat="47.75256" lon="-3.46061">
        <ele>34</ele>
        <time>2012-02-22T13:51:17Z</time>
      </trkpt>
      <trkpt lat="47.75252" lon="-3.46063">
        <ele>34</ele>
        <time>2012-02-22T13:51:18Z</time>
      </trkpt>
      <trkpt lat="47.75243" lon="-3.46073">
        <ele>33</ele>
        <time>2012-02-22T13:51:21Z</time>
      </trkpt>
      <trkpt lat="47.75224" lon="-3.46113">
        <ele>31</ele>
        <time>2012-02-22T13:51:29Z</time>
      </trkpt>
      <trkpt lat="47.75149" lon="-3.46299">
        <ele>29</ele>
        <time>2012-02-22T13:52:03Z</time>
      </trkpt>
      <trkpt lat="47.75124" lon="-3.46353">
        <ele>28</ele>
        <time>2012-02-22T13:52:13Z</time>
      </trkpt>
      <trkpt lat="47.7511" lon="-3.46379">
        <ele>28</ele>
        <time>2012-02-22T13:52:18Z</time>
      </trkpt>
      <trkpt lat="47.75097" lon="-3.46396">
        <ele>27</ele>
        <time>2012-02-22T13:52:22Z</time>
      </trkpt>
      <trkpt lat="47.75082" lon="-3.4641">
        <ele>25</ele>
        <time>2012-02-22T13:52:26Z</time>
      </trkpt>
      <trkpt lat="47.75066" lon="-3.46421">
        <ele>25</ele>
        <time>2012-02-22T13:52:30Z</time>
      </trkpt>
      <trkpt lat="47.75023" lon="-3.46447">
        <ele>24</ele>
        <time>2012-02-22T13:52:40Z</time>
      </trkpt>
      <trkpt lat="47.75014" lon="-3.46451">
        <ele>24</ele>
        <time>2012-02-22T13:52:42Z</time>
      </trkpt>
      <trkpt lat="47.74999" lon="-3.46456">
        <ele>22</ele>
        <time>2012-02-22T13:52:45Z</time>
      </trkpt>
      <trkpt lat="47.74947" lon="-3.46459">
        <ele>22</ele>
        <time>2012-02-22T13:52:55Z</time>
      </trkpt>
      <trkpt lat="47.74915" lon="-3.46458">
        <ele>20</ele>
        <time>2012-02-22T13:53:01Z</time>
      </trkpt>
      <trkpt lat="47.74838" lon="-3.46461">
        <ele>20</ele>
        <time>2012-02-22T13:53:16Z</time>
      </trkpt>
      <trkpt lat="47.74807" lon="-3.4646">
        <ele>19</ele>
        <time>2012-02-22T13:53:23Z</time>
      </trkpt>
      <trkpt lat="47.74782" lon="-3.46455">
        <ele>20</ele>
        <time>2012-02-22T13:53:30Z</time>
      </trkpt>
      <trkpt lat="47.74784" lon="-3.4645">
        <ele>20</ele>
        <time>2012-02-22T13:55:20Z</time>
      </trkpt>
      <trkpt lat="47.74799" lon="-3.4645">
        <ele>20</ele>
        <time>2012-02-22T13:55:26Z</time>
      </trkpt>
      <trkpt lat="47.74803" lon="-3.46445">
        <ele>20</ele>
        <time>2012-02-22T13:55:29Z</time>
      </trkpt>
      <trkpt lat="47.74806" lon="-3.46359">
        <ele>21</ele>
        <time>2012-02-22T13:56:01Z</time>
      </trkpt>
      <trkpt lat="47.74806" lon="-3.46352">
        <ele>21</ele>
        <time>2012-02-22T13:56:13Z</time>
      </trkpt>
      <trkpt lat="47.74804" lon="-3.46348">
        <ele>21</ele>
        <time>2012-02-22T13:56:15Z</time>
      </trkpt>
      <trkpt lat="47.74759" lon="-3.46299">
        <ele>23</ele>
        <time>2012-02-22T13:56:37Z</time>
      </trkpt>
      <trkpt lat="47.74729" lon="-3.46275">
        <ele>27</ele>
        <time>2012-02-22T13:56:50Z</time>
      </trkpt>
      <trkpt lat="47.7471" lon="-3.46268">
        <ele>28</ele>
        <time>2012-02-22T13:56:57Z</time>
      </trkpt>
      <trkpt lat="47.74657" lon="-3.46269">
        <ele>34</ele>
        <time>2012-02-22T13:58:07Z</time>
      </trkpt>
      <trkpt lat="47.74659" lon="-3.46272">
        <ele>34</ele>
        <time>2012-02-22T13:58:12Z</time>
      </trkpt>
      <trkpt lat="47.74663" lon="-3.46273">
        <ele>34</ele>
        <time>2012-02-22T13:58:14Z</time>
      </trkpt>
      <trkpt lat="47.74693" lon="-3.46269">
        <ele>29</ele>
        <time>2012-02-22T13:58:26Z</time>
      </trkpt>
      <trkpt lat="47.74709" lon="-3.4627">
        <ele>28</ele>
        <time>2012-02-22T13:58:29Z</time>
      </trkpt>
      <trkpt lat="47.74722" lon="-3.46272">
        <ele>27</ele>
        <time>2012-02-22T13:58:31Z</time>
      </trkpt>
      <trkpt lat="47.74746" lon="-3.46287">
        <ele>26</ele>
        <time>2012-02-22T13:58:35Z</time>
      </trkpt>
      <trkpt lat="47.74767" lon="-3.46303">
        <ele>23</ele>
        <time>2012-02-22T13:58:39Z</time>
      </trkpt>
      <trkpt lat="47.74805" lon="-3.46342">
        <ele>21</ele>
        <time>2012-02-22T13:58:49Z</time>
      </trkpt>
      <trkpt lat="47.74807" lon="-3.46344">
        <ele>21</ele>
        <time>2012-02-22T13:58:50Z</time>
      </trkpt>
      <trkpt lat="47.74807" lon="-3.46353">
        <ele>21</ele>
        <time>2012-02-22T13:59:04Z</time>
      </trkpt>
      <trkpt lat="47.74806" lon="-3.46371">
        <ele>21</ele>
        <time>2012-02-22T13:59:16Z</time>
      </trkpt>
      <trkpt lat="47.74807" lon="-3.46379">
        <ele>21</ele>
        <time>2012-02-22T13:59:18Z</time>
      </trkpt>
      <trkpt lat="47.74806" lon="-3.46439">
        <ele>20</ele>
        <time>2012-02-22T13:59:31Z</time>
      </trkpt>
      <trkpt lat="47.74806" lon="-3.46442">
        <ele>20</ele>
        <time>2012-02-22T13:59:32Z</time>
      </trkpt>
      <trkpt lat="47.74803" lon="-3.46448">
        <ele>20</ele>
        <time>2012-02-22T13:59:34Z</time>
      </trkpt>
      <trkpt lat="47.748" lon="-3.46449">
        <ele>20</ele>
        <time>2012-02-22T13:59:35Z</time>
      </trkpt>
      <trkpt lat="47.74781" lon="-3.46441">
        <ele>20</ele>
        <time>2012-02-22T13:59:40Z</time>
      </trkpt>
      <trkpt lat="47.74727" lon="-3.46432">
        <ele>20</ele>
        <time>2012-02-22T13:59:55Z</time>
      </trkpt>
      <trkpt lat="47.74709" lon="-3.46431">
        <ele>20</ele>
        <time>2012-02-22T14:00:00Z</time>
      </trkpt>
      <trkpt lat="47.74691" lon="-3.46434">
        <ele>20</ele>
        <time>2012-02-22T14:00:05Z</time>
      </trkpt>
      <trkpt lat="47.74679" lon="-3.46438">
        <ele>20</ele>
        <time>2012-02-22T14:00:08Z</time>
      </trkpt>
      <trkpt lat="47.74638" lon="-3.46457">
        <ele>22</ele>
        <time>2012-02-22T14:00:19Z</time>
      </trkpt>
      <trkpt lat="47.74612" lon="-3.46466">
        <ele>22</ele>
        <time>2012-02-22T14:00:27Z</time>
      </trkpt>
      <trkpt lat="47.74574" lon="-3.46475">
        <ele>23</ele>
        <time>2012-02-22T14:00:38Z</time>
      </trkpt>
      <trkpt lat="47.7455" lon="-3.46478">
        <ele>23</ele>
        <time>2012-02-22T14:00:46Z</time>
      </trkpt>
      <trkpt lat="47.74519" lon="-3.46487">
        <ele>22</ele>
        <time>2012-02-22T14:00:54Z</time>
      </trkpt>
      <trkpt lat="47.74498" lon="-3.46495">
        <ele>21</ele>
        <time>2012-02-22T14:01:00Z</time>
      </trkpt>
      <trkpt lat="47.74476" lon="-3.46505">
        <ele>19</ele>
        <time>2012-02-22T14:01:06Z</time>
      </trkpt>
      <trkpt lat="47.74463" lon="-3.46512">
        <ele>18</ele>
        <time>2012-02-22T14:01:09Z</time>
      </trkpt>
      <trkpt lat="47.74452" lon="-3.46523">
        <ele>18</ele>
        <time>2012-02-22T14:01:12Z</time>
      </trkpt>
      <trkpt lat="47.74445" lon="-3.46533">
        <ele>17</ele>
        <time>2012-02-22T14:01:15Z</time>
      </trkpt>
      <trkpt lat="47.7443" lon="-3.46539">
        <ele>17</ele>
        <time>2012-02-22T14:01:25Z</time>
      </trkpt>
      <trkpt lat="47.74427" lon="-3.46539">
        <ele>17</ele>
        <time>2012-02-22T14:01:26Z</time>
      </trkpt>
      <trkpt lat="47.7442" lon="-3.46536">
        <ele>17</ele>
        <time>2012-02-22T14:01:28Z</time>
      </trkpt>
      <trkpt lat="47.74409" lon="-3.46526">
        <ele>15</ele>
        <time>2012-02-22T14:01:32Z</time>
      </trkpt>
      <trkpt lat="47.74394" lon="-3.46505">
        <ele>16</ele>
        <time>2012-02-22T14:01:39Z</time>
      </trkpt>
      <trkpt lat="47.74381" lon="-3.46475">
        <ele>17</ele>
        <time>2012-02-22T14:01:47Z</time>
      </trkpt>
      <trkpt lat="47.74359" lon="-3.46412">
        <ele>20</ele>
        <time>2012-02-22T14:02:04Z</time>
      </trkpt>
      <trkpt lat="47.74341" lon="-3.46379">
        <ele>20</ele>
        <time>2012-02-22T14:02:13Z</time>
      </trkpt>
      <trkpt lat="47.74319" lon="-3.46342">
        <ele>21</ele>
        <time>2012-02-22T14:02:24Z</time>
      </trkpt>
      <trkpt lat="47.74304" lon="-3.46311">
        <ele>25</ele>
        <time>2012-02-22T14:02:33Z</time>
      </trkpt>
      <trkpt lat="47.74297" lon="-3.46287">
        <ele>26</ele>
        <time>2012-02-22T14:02:39Z</time>
      </trkpt>
      <trkpt lat="47.74292" lon="-3.46249">
        <ele>28</ele>
        <time>2012-02-22T14:02:48Z</time>
      </trkpt>
      <trkpt lat="47.74289" lon="-3.46153">
        <ele>28</ele>
        <time>2012-02-22T14:03:07Z</time>
      </trkpt>
      <trkpt lat="47.74285" lon="-3.46136">
        <ele>28</ele>
        <time>2012-02-22T14:03:10Z</time>
      </trkpt>
      <trkpt lat="47.7428" lon="-3.46127">
        <ele>28</ele>
        <time>2012-02-22T14:03:12Z</time>
      </trkpt>
      <trkpt lat="47.74277" lon="-3.46123">
        <ele>28</ele>
        <time>2012-02-22T14:03:13Z</time>
      </trkpt>
      <trkpt lat="47.74263" lon="-3.46111">
        <ele>28</ele>
        <time>2012-02-22T14:03:18Z</time>
      </trkpt>
      <trkpt lat="47.74229" lon="-3.4609">
        <ele>32</ele>
        <time>2012-02-22T14:03:29Z</time>
      </trkpt>
      <trkpt lat="47.74192" lon="-3.46052">
        <ele>34</ele>
        <time>2012-02-22T14:03:43Z</time>
      </trkpt>
      <trkpt lat="47.74179" lon="-3.46037">
        <ele>34</ele>
        <time>2012-02-22T14:03:48Z</time>
      </trkpt>
      <trkpt lat="47.74176" lon="-3.4603">
        <ele>34</ele>
        <time>2012-02-22T14:03:50Z</time>
      </trkpt>
      <trkpt lat="47.74162" lon="-3.46013">
        <ele>38</ele>
        <time>2012-02-22T14:03:55Z</time>
      </trkpt>
      <trkpt lat="47.74124" lon="-3.45971">
        <ele>39</ele>
        <time>2012-02-22T14:04:09Z</time>
      </trkpt>
      <trkpt lat="47.74052" lon="-3.4588">
        <ele>41</ele>
        <time>2012-02-22T14:04:39Z</time>
      </trkpt>
      <trkpt lat="47.74034" lon="-3.45861">
        <ele>41</ele>
        <time>2012-02-22T14:04:46Z</time>
      </trkpt>
      <trkpt lat="47.74018" lon="-3.45846">
        <ele>40</ele>
        <time>2012-02-22T14:04:52Z</time>
      </trkpt>
      <trkpt lat="47.74002" lon="-3.45836">
        <ele>40</ele>
        <time>2012-02-22T14:04:57Z</time>
      </trkpt>
      <trkpt lat="47.73983" lon="-3.45824">
        <ele>41</ele>
        <time>2012-02-22T14:05:03Z</time>
      </trkpt>
      <trkpt lat="47.73967" lon="-3.45817">
        <ele>41</ele>
        <time>2012-02-22T14:05:08Z</time>
      </trkpt>
      <trkpt lat="47.73942" lon="-3.45808">
        <ele>41</ele>
        <time>2012-02-22T14:05:16Z</time>
      </trkpt>
      <trkpt lat="47.73881" lon="-3.45801">
        <ele>42</ele>
        <time>2012-02-22T14:05:38Z</time>
      </trkpt>
      <trkpt lat="47.73832" lon="-3.45797">
        <ele>41</ele>
        <time>2012-02-22T14:05:55Z</time>
      </trkpt>
      <trkpt lat="47.73795" lon="-3.45799">
        <ele>40</ele>
        <time>2012-02-22T14:06:07Z</time>
      </trkpt>
      <trkpt lat="47.73782" lon="-3.45795">
        <ele>40</ele>
        <time>2012-02-22T14:06:19Z</time>
      </trkpt>
      <trkpt lat="47.73767" lon="-3.45798">
        <ele>40</ele>
        <time>2012-02-22T14:06:24Z</time>
      </trkpt>
      <trkpt lat="47.73739" lon="-3.45793">
        <ele>38</ele>
        <time>2012-02-22T14:06:30Z</time>
      </trkpt>
      <trkpt lat="47.73717" lon="-3.45791">
        <ele>37</ele>
        <time>2012-02-22T14:06:35Z</time>
      </trkpt>
      <trkpt lat="47.73689" lon="-3.45793">
        <ele>37</ele>
        <time>2012-02-22T14:06:42Z</time>
      </trkpt>
      <trkpt lat="47.73632" lon="-3.45788">
        <ele>34</ele>
        <time>2012-02-22T14:06:55Z</time>
      </trkpt>
      <trkpt lat="47.73562" lon="-3.45788">
        <ele>33</ele>
        <time>2012-02-22T14:07:10Z</time>
      </trkpt>
      <trkpt lat="47.7347" lon="-3.45795">
        <ele>33</ele>
        <time>2012-02-22T14:07:29Z</time>
      </trkpt>
      <trkpt lat="47.73323" lon="-3.45794">
        <ele>35</ele>
        <time>2012-02-22T14:08:01Z</time>
      </trkpt>
      <trkpt lat="47.73189" lon="-3.45791">
        <ele>36</ele>
        <time>2012-02-22T14:08:32Z</time>
      </trkpt>
      <trkpt lat="47.73145" lon="-3.45789">
        <ele>37</ele>
        <time>2012-02-22T14:08:42Z</time>
      </trkpt>
      <trkpt lat="47.73112" lon="-3.45786">
        <ele>37</ele>
        <time>2012-02-22T14:08:50Z</time>
      </trkpt>
      <trkpt lat="47.72968" lon="-3.45786">
        <ele>39</ele>
        <time>2012-02-22T14:09:25Z</time>
      </trkpt>
      <trkpt lat="47.7289" lon="-3.45782">
        <ele>39</ele>
        <time>2012-02-22T14:09:43Z</time>
      </trkpt>
      <trkpt lat="47.72872" lon="-3.45783">
        <ele>39</ele>
        <time>2012-02-22T14:09:47Z</time>
      </trkpt>
      <trkpt lat="47.72858" lon="-3.45786">
        <ele>38</ele>
        <time>2012-02-22T14:09:50Z</time>
      </trkpt>
      <trkpt lat="47.7284" lon="-3.45792">
        <ele>38</ele>
        <time>2012-02-22T14:09:54Z</time>
      </trkpt>
      <trkpt lat="47.72814" lon="-3.45807">
        <ele>37</ele>
        <time>2012-02-22T14:10:00Z</time>
      </trkpt>
      <trkpt lat="47.72796" lon="-3.4582">
        <ele>37</ele>
        <time>2012-02-22T14:10:04Z</time>
      </trkpt>
      <trkpt lat="47.7278" lon="-3.45835">
        <ele>36</ele>
        <time>2012-02-22T14:10:08Z</time>
      </trkpt>
      <trkpt lat="47.72762" lon="-3.45857">
        <ele>36</ele>
        <time>2012-02-22T14:10:13Z</time>
      </trkpt>
      <trkpt lat="47.72692" lon="-3.45959">
        <ele>36</ele>
        <time>2012-02-22T14:10:33Z</time>
      </trkpt>
      <trkpt lat="47.72673" lon="-3.45992">
        <ele>36</ele>
        <time>2012-02-22T14:10:39Z</time>
      </trkpt>
      <trkpt lat="47.7266" lon="-3.46023">
        <ele>35</ele>
        <time>2012-02-22T14:10:45Z</time>
      </trkpt>
      <trkpt lat="47.72645" lon="-3.46074">
        <ele>35</ele>
        <time>2012-02-22T14:10:54Z</time>
      </trkpt>
      <trkpt lat="47.72635" lon="-3.46131">
        <ele>35</ele>
        <time>2012-02-22T14:11:03Z</time>
      </trkpt>
      <trkpt lat="47.72632" lon="-3.46134">
        <ele>35</ele>
        <time>2012-02-22T14:11:04Z</time>
      </trkpt>
      <trkpt lat="47.72629" lon="-3.46136">
        <ele>35</ele>
        <time>2012-02-22T14:11:05Z</time>
      </trkpt>
      <trkpt lat="47.7262" lon="-3.46132">
        <ele>35</ele>
        <time>2012-02-22T14:11:08Z</time>
      </trkpt>
      <trkpt lat="47.72576" lon="-3.46102">
        <ele>34</ele>
        <time>2012-02-22T14:11:19Z</time>
      </trkpt>
      <trkpt lat="47.72523" lon="-3.46071">
        <ele>33</ele>
        <time>2012-02-22T14:11:34Z</time>
      </trkpt>
      <trkpt lat="47.72513" lon="-3.46064">
        <ele>33</ele>
        <time>2012-02-22T14:11:37Z</time>
      </trkpt>
      <trkpt lat="47.72497" lon="-3.46044">
        <ele>33</ele>
        <time>2012-02-22T14:11:43Z</time>
      </trkpt>
      <trkpt lat="47.72441" lon="-3.45985">
        <ele>34</ele>
        <time>2012-02-22T14:12:03Z</time>
      </trkpt>
      <trkpt lat="47.72405" lon="-3.45952">
        <ele>34</ele>
        <time>2012-02-22T14:12:13Z</time>
      </trkpt>
      <trkpt lat="47.72361" lon="-3.45909">
        <ele>33</ele>
        <time>2012-02-22T14:12:24Z</time>
      </trkpt>
      <trkpt lat="47.72331" lon="-3.45884">
        <ele>32</ele>
        <time>2012-02-22T14:12:30Z</time>
      </trkpt>
      <trkpt lat="47.72248" lon="-3.45827">
        <ele>30</ele>
        <time>2012-02-22T14:12:48Z</time>
      </trkpt>
      <trkpt lat="47.72205" lon="-3.45795">
        <ele>30</ele>
        <time>2012-02-22T14:12:58Z</time>
      </trkpt>
      <trkpt lat="47.72186" lon="-3.45782">
        <ele>30</ele>
        <time>2012-02-22T14:13:02Z</time>
      </trkpt>
      <trkpt lat="47.72158" lon="-3.4577">
        <ele>29</ele>
        <time>2012-02-22T14:13:08Z</time>
      </trkpt>
      <trkpt lat="47.72146" lon="-3.45763">
        <ele>29</ele>
        <time>2012-02-22T14:13:11Z</time>
      </trkpt>
      <trkpt lat="47.721" lon="-3.45713">
        <ele>29</ele>
        <time>2012-02-22T14:13:24Z</time>
      </trkpt>
      <trkpt lat="47.7208" lon="-3.45689">
        <ele>28</ele>
        <time>2012-02-22T14:13:31Z</time>
      </trkpt>
      <trkpt lat="47.72067" lon="-3.45676">
        <ele>28</ele>
        <time>2012-02-22T14:13:35Z</time>
      </trkpt>
      <trkpt lat="47.72058" lon="-3.45671">
        <ele>28</ele>
        <time>2012-02-22T14:13:37Z</time>
      </trkpt>
      <trkpt lat="47.72044" lon="-3.45665">
        <ele>28</ele>
        <time>2012-02-22T14:13:40Z</time>
      </trkpt>
      <trkpt lat="47.7201" lon="-3.45657">
        <ele>27</ele>
        <time>2012-02-22T14:13:47Z</time>
      </trkpt>
      <trkpt lat="47.71957" lon="-3.45642">
        <ele>25</ele>
        <time>2012-02-22T14:13:57Z</time>
      </trkpt>
      <trkpt lat="47.71926" lon="-3.45627">
        <ele>25</ele>
        <time>2012-02-22T14:14:03Z</time>
      </trkpt>
      <trkpt lat="47.71878" lon="-3.45596">
        <ele>24</ele>
        <time>2012-02-22T14:14:14Z</time>
      </trkpt>
      <trkpt lat="47.7185" lon="-3.45569">
        <ele>24</ele>
        <time>2012-02-22T14:14:22Z</time>
      </trkpt>
      <trkpt lat="47.7181" lon="-3.45526">
        <ele>24</ele>
        <time>2012-02-22T14:14:33Z</time>
      </trkpt>
      <trkpt lat="47.71785" lon="-3.45503">
        <ele>24</ele>
        <time>2012-02-22T14:14:40Z</time>
      </trkpt>
      <trkpt lat="47.71758" lon="-3.45485">
        <ele>24</ele>
        <time>2012-02-22T14:14:47Z</time>
      </trkpt>
      <trkpt lat="47.71699" lon="-3.45456">
        <ele>24</ele>
        <time>2012-02-22T14:15:03Z</time>
      </trkpt>
      <trkpt lat="47.71651" lon="-3.45428">
        <ele>24</ele>
        <time>2012-02-22T14:15:16Z</time>
      </trkpt>
      <trkpt lat="47.71619" lon="-3.45416">
        <ele>24</ele>
        <time>2012-02-22T14:15:24Z</time>
      </trkpt>
      <trkpt lat="47.71607" lon="-3.45414">
        <ele>24</ele>
        <time>2012-02-22T14:15:27Z</time>
      </trkpt>
      <trkpt lat="47.71595" lon="-3.45414">
        <ele>24</ele>
        <time>2012-02-22T14:15:30Z</time>
      </trkpt>
      <trkpt lat="47.71591" lon="-3.45416">
        <ele>24</ele>
        <time>2012-02-22T14:15:31Z</time>
      </trkpt>
      <trkpt lat="47.71569" lon="-3.45429">
        <ele>23</ele>
        <time>2012-02-22T14:15:37Z</time>
      </trkpt>
      <trkpt lat="47.71539" lon="-3.45441">
        <ele>22</ele>
        <time>2012-02-22T14:15:44Z</time>
      </trkpt>
      <trkpt lat="47.71532" lon="-3.45448">
        <ele>22</ele>
        <time>2012-02-22T14:15:46Z</time>
      </trkpt>
      <trkpt lat="47.71529" lon="-3.45455">
        <ele>22</ele>
        <time>2012-02-22T14:15:47Z</time>
      </trkpt>
      <trkpt lat="47.71523" lon="-3.45482">
        <ele>21</ele>
        <time>2012-02-22T14:15:51Z</time>
      </trkpt>
      <trkpt lat="47.71516" lon="-3.4554">
        <ele>20</ele>
        <time>2012-02-22T14:15:59Z</time>
      </trkpt>
      <trkpt lat="47.71507" lon="-3.45582">
        <ele>18</ele>
        <time>2012-02-22T14:16:04Z</time>
      </trkpt>
      <trkpt lat="47.71501" lon="-3.45597">
        <ele>18</ele>
        <time>2012-02-22T14:16:06Z</time>
      </trkpt>
      <trkpt lat="47.71487" lon="-3.45622">
        <ele>17</ele>
        <time>2012-02-22T14:16:10Z</time>
      </trkpt>
      <trkpt lat="47.71475" lon="-3.45645">
        <ele>17</ele>
        <time>2012-02-22T14:16:14Z</time>
      </trkpt>
      <trkpt lat="47.71457" lon="-3.45687">
        <ele>18</ele>
        <time>2012-02-22T14:16:23Z</time>
      </trkpt>
      <trkpt lat="47.71394" lon="-3.45899">
        <ele>16</ele>
        <time>2012-02-22T14:17:06Z</time>
      </trkpt>
      <trkpt lat="47.71389" lon="-3.45922">
        <ele>17</ele>
        <time>2012-02-22T14:17:10Z</time>
      </trkpt>
      <trkpt lat="47.71384" lon="-3.45953">
        <ele>17</ele>
        <time>2012-02-22T14:17:15Z</time>
      </trkpt>
      <trkpt lat="47.71382" lon="-3.45973">
        <ele>17</ele>
        <time>2012-02-22T14:17:18Z</time>
      </trkpt>
      <trkpt lat="47.71381" lon="-3.46007">
        <ele>17</ele>
        <time>2012-02-22T14:17:23Z</time>
      </trkpt>
      <trkpt lat="47.71376" lon="-3.46039">
        <ele>17</ele>
        <time>2012-02-22T14:17:29Z</time>
      </trkpt>
      <trkpt lat="47.71357" lon="-3.46104">
        <ele>16</ele>
        <time>2012-02-22T14:17:42Z</time>
      </trkpt>
      <trkpt lat="47.71344" lon="-3.46134">
        <ele>16</ele>
        <time>2012-02-22T14:17:47Z</time>
      </trkpt>
      <trkpt lat="47.71305" lon="-3.46186">
        <ele>14</ele>
        <time>2012-02-22T14:18:00Z</time>
      </trkpt>
      <trkpt lat="47.71291" lon="-3.46203">
        <ele>14</ele>
        <time>2012-02-22T14:18:06Z</time>
      </trkpt>
      <trkpt lat="47.71278" lon="-3.46215">
        <ele>14</ele>
        <time>2012-02-22T14:18:10Z</time>
      </trkpt>
      <trkpt lat="47.71252" lon="-3.46233">
        <ele>14</ele>
        <time>2012-02-22T14:18:17Z</time>
      </trkpt>
      <trkpt lat="47.71194" lon="-3.46262">
        <ele>14</ele>
        <time>2012-02-22T14:18:34Z</time>
      </trkpt>
      <trkpt lat="47.71138" lon="-3.46297">
        <ele>13</ele>
        <time>2012-02-22T14:18:50Z</time>
      </trkpt>
      <trkpt lat="47.71124" lon="-3.46309">
        <ele>13</ele>
        <time>2012-02-22T14:18:54Z</time>
      </trkpt>
      <trkpt lat="47.71114" lon="-3.4632">
        <ele>14</ele>
        <time>2012-02-22T14:18:57Z</time>
      </trkpt>
      <trkpt lat="47.71106" lon="-3.46333">
        <ele>14</ele>
        <time>2012-02-22T14:19:00Z</time>
      </trkpt>
      <trkpt lat="47.71097" lon="-3.46354">
        <ele>15</ele>
        <time>2012-02-22T14:19:04Z</time>
      </trkpt>
      <trkpt lat="47.71083" lon="-3.46395">
        <ele>15</ele>
        <time>2012-02-22T14:19:12Z</time>
      </trkpt>
      <trkpt lat="47.71078" lon="-3.46403">
        <ele>15</ele>
        <time>2012-02-22T14:19:14Z</time>
      </trkpt>
      <trkpt lat="47.71068" lon="-3.46413">
        <ele>15</ele>
        <time>2012-02-22T14:19:17Z</time>
      </trkpt>
      <trkpt lat="47.71056" lon="-3.46418">
        <ele>15</ele>
        <time>2012-02-22T14:19:20Z</time>
      </trkpt>
      <trkpt lat="47.71045" lon="-3.4642">
        <ele>15</ele>
        <time>2012-02-22T14:19:23Z</time>
      </trkpt>
      <trkpt lat="47.71033" lon="-3.46419">
        <ele>15</ele>
        <time>2012-02-22T14:19:26Z</time>
      </trkpt>
      <trkpt lat="47.71021" lon="-3.46415">
        <ele>15</ele>
        <time>2012-02-22T14:19:29Z</time>
      </trkpt>
      <trkpt lat="47.71005" lon="-3.46411">
        <ele>15</ele>
        <time>2012-02-22T14:19:33Z</time>
      </trkpt>
      <trkpt lat="47.70993" lon="-3.46412">
        <ele>14</ele>
        <time>2012-02-22T14:19:36Z</time>
      </trkpt>
      <trkpt lat="47.70977" lon="-3.46415">
        <ele>14</ele>
        <time>2012-02-22T14:19:40Z</time>
      </trkpt>
      <trkpt lat="47.7096" lon="-3.46429">
        <ele>14</ele>
        <time>2012-02-22T14:19:45Z</time>
      </trkpt>
      <trkpt lat="47.70929" lon="-3.46463">
        <ele>14</ele>
        <time>2012-02-22T14:19:55Z</time>
      </trkpt>
      <trkpt lat="47.70906" lon="-3.46478">
        <ele>12</ele>
        <time>2012-02-22T14:20:02Z</time>
      </trkpt>
      <trkpt lat="47.70896" lon="-3.46487">
        <ele>12</ele>
        <time>2012-02-22T14:20:05Z</time>
      </trkpt>
      <trkpt lat="47.70872" lon="-3.46519">
        <ele>12</ele>
        <time>2012-02-22T14:20:12Z</time>
      </trkpt>
      <trkpt lat="47.70863" lon="-3.46527">
        <ele>12</ele>
        <time>2012-02-22T14:20:14Z</time>
      </trkpt>
      <trkpt lat="47.70836" lon="-3.46539">
        <ele>11</ele>
        <time>2012-02-22T14:20:21Z</time>
      </trkpt>
      <trkpt lat="47.70803" lon="-3.46536">
        <ele>10</ele>
        <time>2012-02-22T14:20:40Z</time>
      </trkpt>
      <trkpt lat="47.70792" lon="-3.46524">
        <ele>9</ele>
        <time>2012-02-22T14:20:44Z</time>
      </trkpt>
      <trkpt lat="47.70766" lon="-3.46484">
        <ele>9</ele>
        <time>2012-02-22T14:20:54Z</time>
      </trkpt>
      <trkpt lat="47.70678" lon="-3.46325">
        <ele>8</ele>
        <time>2012-02-22T14:21:26Z</time>
      </trkpt>
      <trkpt lat="47.70666" lon="-3.463">
        <ele>7</ele>
        <time>2012-02-22T14:21:31Z</time>
      </trkpt>
      <trkpt lat="47.70631" lon="-3.46236">
        <ele>7</ele>
        <time>2012-02-22T14:21:41Z</time>
      </trkpt>
      <trkpt lat="47.70566" lon="-3.46125">
        <ele>9</ele>
        <time>2012-02-22T14:22:06Z</time>
      </trkpt>
      <trkpt lat="47.70504" lon="-3.46011">
        <ele>10</ele>
        <time>2012-02-22T14:22:30Z</time>
      </trkpt>
      <trkpt lat="47.70493" lon="-3.45992">
        <ele>10</ele>
        <time>2012-02-22T14:22:34Z</time>
      </trkpt>
      <trkpt lat="47.70473" lon="-3.45964">
        <ele>9</ele>
        <time>2012-02-22T14:22:41Z</time>
      </trkpt>
      <trkpt lat="47.70455" lon="-3.45933">
        <ele>9</ele>
        <time>2012-02-22T14:22:48Z</time>
      </trkpt>
      <trkpt lat="47.70443" lon="-3.45909">
        <ele>10</ele>
        <time>2012-02-22T14:22:52Z</time>
      </trkpt>
      <trkpt lat="47.70411" lon="-3.45829">
        <ele>9</ele>
        <time>2012-02-22T14:23:04Z</time>
      </trkpt>
      <trkpt lat="47.70402" lon="-3.45798">
        <ele>10</ele>
        <time>2012-02-22T14:23:09Z</time>
      </trkpt>
      <trkpt lat="47.70388" lon="-3.45738">
        <ele>13</ele>
        <time>2012-02-22T14:23:19Z</time>
      </trkpt>
      <trkpt lat="47.70373" lon="-3.45647">
        <ele>16</ele>
        <time>2012-02-22T14:23:33Z</time>
      </trkpt>
      <trkpt lat="47.70368" lon="-3.45624">
        <ele>16</ele>
        <time>2012-02-22T14:23:37Z</time>
      </trkpt>
      <trkpt lat="47.7036" lon="-3.45604">
        <ele>16</ele>
        <time>2012-02-22T14:23:41Z</time>
      </trkpt>
      <trkpt lat="47.70339" lon="-3.4558">
        <ele>17</ele>
        <time>2012-02-22T14:23:47Z</time>
      </trkpt>
      <trkpt lat="47.70336" lon="-3.45575">
        <ele>17</ele>
        <time>2012-02-22T14:23:48Z</time>
      </trkpt>
      <trkpt lat="47.70332" lon="-3.45565">
        <ele>16</ele>
        <time>2012-02-22T14:23:50Z</time>
      </trkpt>
      <trkpt lat="47.70302" lon="-3.4542">
        <ele>15</ele>
        <time>2012-02-22T14:24:12Z</time>
      </trkpt>
      <trkpt lat="47.70289" lon="-3.45341">
        <ele>15</ele>
        <time>2012-02-22T14:24:25Z</time>
      </trkpt>
      <trkpt lat="47.70288" lon="-3.45319">
        <ele>15</ele>
        <time>2012-02-22T14:24:28Z</time>
      </trkpt>
      <trkpt lat="47.70295" lon="-3.45269">
        <ele>15</ele>
        <time>2012-02-22T14:24:34Z</time>
      </trkpt>
      <trkpt lat="47.70302" lon="-3.45194">
        <ele>14</ele>
        <time>2012-02-22T14:24:43Z</time>
      </trkpt>
      <trkpt lat="47.70315" lon="-3.45118">
        <ele>13</ele>
        <time>2012-02-22T14:24:52Z</time>
      </trkpt>
      <trkpt lat="47.70328" lon="-3.45008">
        <ele>12</ele>
        <time>2012-02-22T14:25:06Z</time>
      </trkpt>
      <trkpt lat="47.70341" lon="-3.44919">
        <ele>13</ele>
        <time>2012-02-22T14:25:18Z</time>
      </trkpt>
      <trkpt lat="47.70353" lon="-3.44871">
        <ele>14</ele>
        <time>2012-02-22T14:25:25Z</time>
      </trkpt>
      <trkpt lat="47.70385" lon="-3.4479">
        <ele>15</ele>
        <time>2012-02-22T14:25:38Z</time>
      </trkpt>
      <trkpt lat="47.70397" lon="-3.44748">
        <ele>14</ele>
        <time>2012-02-22T14:25:44Z</time>
      </trkpt>
      <trkpt lat="47.70404" lon="-3.44715">
        <ele>13</ele>
        <time>2012-02-22T14:25:48Z</time>
      </trkpt>
      <trkpt lat="47.70409" lon="-3.44675">
        <ele>12</ele>
        <time>2012-02-22T14:25:52Z</time>
      </trkpt>
      <trkpt lat="47.70424" lon="-3.44592">
        <ele>11</ele>
        <time>2012-02-22T14:26:00Z</time>
      </trkpt>
      <trkpt lat="47.70435" lon="-3.44514">
        <ele>12</ele>
        <time>2012-02-22T14:26:08Z</time>
      </trkpt>
      <trkpt lat="47.70446" lon="-3.44454">
        <ele>14</ele>
        <time>2012-02-22T14:26:16Z</time>
      </trkpt>
      <trkpt lat="47.70448" lon="-3.44429">
        <ele>14</ele>
        <time>2012-02-22T14:26:20Z</time>
      </trkpt>
      <trkpt lat="47.70448" lon="-3.44397">
        <ele>16</ele>
        <time>2012-02-22T14:26:25Z</time>
      </trkpt>
      <trkpt lat="47.70444" lon="-3.44371">
        <ele>16</ele>
        <time>2012-02-22T14:26:29Z</time>
      </trkpt>
      <trkpt lat="47.70435" lon="-3.4434">
        <ele>15</ele>
        <time>2012-02-22T14:26:34Z</time>
      </trkpt>
      <trkpt lat="47.70422" lon="-3.44304">
        <ele>16</ele>
        <time>2012-02-22T14:26:40Z</time>
      </trkpt>
      <trkpt lat="47.70416" lon="-3.44297">
        <ele>15</ele>
        <time>2012-02-22T14:26:42Z</time>
      </trkpt>
      <trkpt lat="47.70404" lon="-3.44289">
        <ele>15</ele>
        <time>2012-02-22T14:26:45Z</time>
      </trkpt>
      <trkpt lat="47.7039" lon="-3.44287">
        <ele>15</ele>
        <time>2012-02-22T14:26:48Z</time>
      </trkpt>
      <trkpt lat="47.70361" lon="-3.44297">
        <ele>15</ele>
        <time>2012-02-22T14:26:54Z</time>
      </trkpt>
      <trkpt lat="47.7033" lon="-3.44303">
        <ele>13</ele>
        <time>2012-02-22T14:27:00Z</time>
      </trkpt>
      <trkpt lat="47.70311" lon="-3.44304">
        <ele>13</ele>
        <time>2012-02-22T14:27:04Z</time>
      </trkpt>
      <trkpt lat="47.70296" lon="-3.44302">
        <ele>13</ele>
        <time>2012-02-22T14:27:07Z</time>
      </trkpt>
      <trkpt lat="47.70292" lon="-3.443">
        <ele>13</ele>
        <time>2012-02-22T14:27:08Z</time>
      </trkpt>
      <trkpt lat="47.70255" lon="-3.44273">
        <ele>13</ele>
        <time>2012-02-22T14:27:16Z</time>
      </trkpt>
      <trkpt lat="47.70153" lon="-3.44195">
        <ele>12</ele>
        <time>2012-02-22T14:27:39Z</time>
      </trkpt>
      <trkpt lat="47.70115" lon="-3.44162">
        <ele>11</ele>
        <time>2012-02-22T14:27:48Z</time>
      </trkpt>
      <trkpt lat="47.70096" lon="-3.44143">
        <ele>11</ele>
        <time>2012-02-22T14:27:52Z</time>
      </trkpt>
      <trkpt lat="47.7008" lon="-3.44111">
        <ele>10</ele>
        <time>2012-02-22T14:27:57Z</time>
      </trkpt>
      <trkpt lat="47.70071" lon="-3.44087">
        <ele>11</ele>
        <time>2012-02-22T14:28:01Z</time>
      </trkpt>
      <trkpt lat="47.70067" lon="-3.44069">
        <ele>11</ele>
        <time>2012-02-22T14:28:04Z</time>
      </trkpt>
      <trkpt lat="47.70065" lon="-3.44044">
        <ele>11</ele>
        <time>2012-02-22T14:28:08Z</time>
      </trkpt>
      <trkpt lat="47.70066" lon="-3.44009">
        <ele>12</ele>
        <time>2012-02-22T14:28:13Z</time>
      </trkpt>
      <trkpt lat="47.70072" lon="-3.43966">
        <ele>12</ele>
        <time>2012-02-22T14:28:19Z</time>
      </trkpt>
      <trkpt lat="47.70114" lon="-3.43799">
        <ele>10</ele>
        <time>2012-02-22T14:28:40Z</time>
      </trkpt>
      <trkpt lat="47.70155" lon="-3.43648">
        <ele>9</ele>
        <time>2012-02-22T14:29:00Z</time>
      </trkpt>
      <trkpt lat="47.70176" lon="-3.43553">
        <ele>7</ele>
        <time>2012-02-22T14:29:11Z</time>
      </trkpt>
      <trkpt lat="47.70182" lon="-3.43525">
        <ele>7</ele>
        <time>2012-02-22T14:29:14Z</time>
      </trkpt>
      <trkpt lat="47.70189" lon="-3.43466">
        <ele>7</ele>
        <time>2012-02-22T14:29:20Z</time>
      </trkpt>
      <trkpt lat="47.70195" lon="-3.43345">
        <ele>5</ele>
        <time>2012-02-22T14:29:32Z</time>
      </trkpt>
      <trkpt lat="47.70199" lon="-3.43292">
        <ele>5</ele>
        <time>2012-02-22T14:29:38Z</time>
      </trkpt>
      <trkpt lat="47.70199" lon="-3.43233">
        <ele>5</ele>
        <time>2012-02-22T14:29:45Z</time>
      </trkpt>
      <trkpt lat="47.70204" lon="-3.43185">
        <ele>5</ele>
        <time>2012-02-22T14:29:51Z</time>
      </trkpt>
      <trkpt lat="47.70202" lon="-3.43172">
        <ele>5</ele>
        <time>2012-02-22T14:29:53Z</time>
      </trkpt>
      <trkpt lat="47.70198" lon="-3.43155">
        <ele>4</ele>
        <time>2012-02-22T14:29:56Z</time>
      </trkpt>
      <trkpt lat="47.70198" lon="-3.43147">
        <ele>4</ele>
        <time>2012-02-22T14:33:59Z</time>
      </trkpt>
      <trkpt lat="47.70202" lon="-3.43146">
        <ele>4</ele>
        <time>2012-02-22T14:35:57Z</time>
      </trkpt>
      <trkpt lat="47.70202" lon="-3.43145">
        <ele>4</ele>
        <time>2012-02-22T14:42:17Z</time>
      </trkpt>
      <trkpt lat="47.70205" lon="-3.43142">
        <ele>4</ele>
        <time>2012-02-22T14:43:37Z</time>
      </trkpt>
      <trkpt lat="47.70209" lon="-3.43142">
        <ele>4</ele>
        <time>2012-02-22T14:43:47Z</time>
      </trkpt>
      <trkpt lat="47.70213" lon="-3.4314">
        <ele>4</ele>
        <time>2012-02-22T14:43:50Z</time>
      </trkpt>
      <trkpt lat="47.70226" lon="-3.43129">
        <ele>4</ele>
        <time>2012-02-22T14:44:02Z</time>
      </trkpt>
      <trkpt lat="47.70229" lon="-3.43128">
        <ele>4</ele>
        <time>2012-02-22T14:44:03Z</time>
      </trkpt>
      <trkpt lat="47.70237" lon="-3.4313">
        <ele>4</ele>
        <time>2012-02-22T14:44:05Z</time>
      </trkpt>
      <trkpt lat="47.70254" lon="-3.43147">
        <ele>5</ele>
        <time>2012-02-22T14:44:10Z</time>
      </trkpt>
      <trkpt lat="47.7026" lon="-3.43152">
        <ele>5</ele>
        <time>2012-02-22T14:44:12Z</time>
      </trkpt>
      <trkpt lat="47.70263" lon="-3.43152">
        <ele>5</ele>
        <time>2012-02-22T14:44:13Z</time>
      </trkpt>
      <trkpt lat="47.70265" lon="-3.43149">
        <ele>5</ele>
        <time>2012-02-22T14:44:14Z</time>
      </trkpt>
      <trkpt lat="47.70268" lon="-3.4314">
        <ele>5</ele>
        <time>2012-02-22T14:44:16Z</time>
      </trkpt>
      <trkpt lat="47.70273" lon="-3.43099">
        <ele>5</ele>
        <time>2012-02-22T14:44:24Z</time>
      </trkpt>
      <trkpt lat="47.70274" lon="-3.43098">
        <ele>5</ele>
        <time>2012-02-22T14:47:20Z</time>
      </trkpt>
      <trkpt lat="47.70275" lon="-3.43097">
        <ele>5</ele>
        <time>2012-02-22T14:49:57Z</time>
      </trkpt>
      <trkpt lat="47.70277" lon="-3.43102">
        <ele>5</ele>
        <time>2012-02-22T14:50:09Z</time>
      </trkpt>
      <trkpt lat="47.70277" lon="-3.43111">
        <ele>5</ele>
        <time>2012-02-22T14:50:41Z</time>
      </trkpt>
      <trkpt lat="47.70271" lon="-3.43153">
        <ele>5</ele>
        <time>2012-02-22T14:50:52Z</time>
      </trkpt>
      <trkpt lat="47.70272" lon="-3.4316">
        <ele>5</ele>
        <time>2012-02-22T14:50:54Z</time>
      </trkpt>
      <trkpt lat="47.70278" lon="-3.43167">
        <ele>5</ele>
        <time>2012-02-22T14:50:57Z</time>
      </trkpt>
      <trkpt lat="47.70308" lon="-3.4319">
        <ele>6</ele>
        <time>2012-02-22T14:51:07Z</time>
      </trkpt>
      <trkpt lat="47.70347" lon="-3.43215">
        <ele>6</ele>
        <time>2012-02-22T14:51:21Z</time>
      </trkpt>
      <trkpt lat="47.70375" lon="-3.43228">
        <ele>6</ele>
        <time>2012-02-22T14:51:30Z</time>
      </trkpt>
      <trkpt lat="47.70412" lon="-3.43241">
        <ele>5</ele>
        <time>2012-02-22T14:51:40Z</time>
      </trkpt>
      <trkpt lat="47.70436" lon="-3.43254">
        <ele>5</ele>
        <time>2012-02-22T14:51:46Z</time>
      </trkpt>
      <trkpt lat="47.70446" lon="-3.43254">
        <ele>4</ele>
        <time>2012-02-22T14:51:48Z</time>
      </trkpt>
      <trkpt lat="47.70451" lon="-3.43251">
        <ele>4</ele>
        <time>2012-02-22T14:51:49Z</time>
      </trkpt>
      <trkpt lat="47.70459" lon="-3.43239">
        <ele>5</ele>
        <time>2012-02-22T14:51:51Z</time>
      </trkpt>
      <trkpt lat="47.70464" lon="-3.43225">
        <ele>5</ele>
        <time>2012-02-22T14:51:53Z</time>
      </trkpt>
      <trkpt lat="47.70469" lon="-3.43201">
        <ele>5</ele>
        <time>2012-02-22T14:51:56Z</time>
      </trkpt>
      <trkpt lat="47.7047" lon="-3.43178">
        <ele>5</ele>
        <time>2012-02-22T14:51:59Z</time>
      </trkpt>
      <trkpt lat="47.7048" lon="-3.43117">
        <ele>4</ele>
        <time>2012-02-22T14:52:08Z</time>
      </trkpt>
      <trkpt lat="47.70485" lon="-3.43072">
        <ele>4</ele>
        <time>2012-02-22T14:52:15Z</time>
      </trkpt>
      <trkpt lat="47.70533" lon="-3.42705">
        <ele>5</ele>
        <time>2012-02-22T14:53:05Z</time>
      </trkpt>
      <trkpt lat="47.70545" lon="-3.42641">
        <ele>4</ele>
        <time>2012-02-22T14:53:14Z</time>
      </trkpt>
      <trkpt lat="47.70554" lon="-3.426">
        <ele>4</ele>
        <time>2012-02-22T14:53:20Z</time>
      </trkpt>
      <trkpt lat="47.70567" lon="-3.42511">
        <ele>5</ele>
        <time>2012-02-22T14:53:33Z</time>
      </trkpt>
      <trkpt lat="47.70572" lon="-3.42492">
        <ele>5</ele>
        <time>2012-02-22T14:53:36Z</time>
      </trkpt>
      <trkpt lat="47.7058" lon="-3.4247">
        <ele>5</ele>
        <time>2012-02-22T14:53:40Z</time>
      </trkpt>
      <trkpt lat="47.70591" lon="-3.42448">
        <ele>5</ele>
        <time>2012-02-22T14:53:45Z</time>
      </trkpt>
      <trkpt lat="47.70621" lon="-3.42403">
        <ele>6</ele>
        <time>2012-02-22T14:53:55Z</time>
      </trkpt>
      <trkpt lat="47.70637" lon="-3.42363">
        <ele>6</ele>
        <time>2012-02-22T14:54:03Z</time>
      </trkpt>
    </trkseg>
  </trk>
</gpx>